<?xml version="1.0" encoding="UTF-8" standalone="no" ?>
<gpx xmlns="http://www.topografix.com/GPX/1/1" xmlns:xsi="http://www.w3.org/2001/XMLSchema-instance" xsi:schemaLocation="http://www.topografix.com/GPX/1/1 http://www.topografix.com/GPX/1/1/gpx.xsd" version="1.1" creator="VisuGPX - https://www.visugpx.com">
  <metadata>
    <name>Tour de la vallée de la Thur 97 Km </name>
    <desc><![CDATA[départ 31/06/2018 10h30 de saint Amarin]]></desc>
  </metadata>
  <trk>
    <name><![CDATA[8103921-TVT 2018]]></name>
    <trkseg>
      <trkpt lat="47.87347" lon="7.03213">
        <ele>411</ele>
        <time>2018-02-23T16:37:04Z</time>
      </trkpt>
      <trkpt lat="47.87408" lon="7.03108">
        <ele>416</ele>
        <time>2018-02-23T16:38:04Z</time>
      </trkpt>
      <trkpt lat="47.87434" lon="7.02954">
        <ele>413</ele>
        <time>2018-02-23T16:39:04Z</time>
      </trkpt>
      <trkpt lat="47.87488" lon="7.02913">
        <ele>414</ele>
        <time>2018-02-23T16:40:04Z</time>
      </trkpt>
      <trkpt lat="47.87609" lon="7.03046">
        <ele>418</ele>
        <time>2018-02-23T16:41:04Z</time>
      </trkpt>
      <trkpt lat="47.87646" lon="7.03157">
        <ele>423</ele>
        <time>2018-02-23T16:42:04Z</time>
      </trkpt>
      <trkpt lat="47.87741" lon="7.03012">
        <ele>440</ele>
        <time>2018-02-23T16:43:04Z</time>
      </trkpt>
      <trkpt lat="47.87866" lon="7.0307">
        <ele>483</ele>
        <time>2018-02-23T16:44:04Z</time>
      </trkpt>
      <trkpt lat="47.87922" lon="7.03009">
        <ele>504</ele>
        <time>2018-02-23T16:45:04Z</time>
      </trkpt>
      <trkpt lat="47.87965" lon="7.03012">
        <ele>515</ele>
        <time>2018-02-23T16:46:04Z</time>
      </trkpt>
      <trkpt lat="47.88045" lon="7.03074">
        <ele>528</ele>
        <time>2018-02-23T16:47:04Z</time>
      </trkpt>
      <trkpt lat="47.88073" lon="7.03029">
        <ele>539</ele>
        <time>2018-02-23T16:48:04Z</time>
      </trkpt>
      <trkpt lat="47.88334" lon="7.03022">
        <ele>587</ele>
        <time>2018-02-23T16:49:04Z</time>
      </trkpt>
      <trkpt lat="47.8838" lon="7.03039">
        <ele>586</ele>
        <time>2018-02-23T16:50:04Z</time>
      </trkpt>
      <trkpt lat="47.88512" lon="7.02902">
        <ele>619</ele>
        <time>2018-02-23T16:51:04Z</time>
      </trkpt>
      <trkpt lat="47.88363" lon="7.02857">
        <ele>632</ele>
        <time>2018-02-23T16:52:04Z</time>
      </trkpt>
      <trkpt lat="47.88507" lon="7.02606">
        <ele>672</ele>
        <time>2018-02-23T16:53:04Z</time>
      </trkpt>
      <trkpt lat="47.88753" lon="7.026">
        <ele>727</ele>
        <time>2018-02-23T16:54:04Z</time>
      </trkpt>
      <trkpt lat="47.88886" lon="7.0252">
        <ele>742</ele>
        <time>2018-02-23T16:55:04Z</time>
      </trkpt>
      <trkpt lat="47.88964" lon="7.02379">
        <ele>745</ele>
        <time>2018-02-23T16:56:04Z</time>
      </trkpt>
      <trkpt lat="47.89045" lon="7.02752">
        <ele>793</ele>
        <time>2018-02-23T16:57:04Z</time>
      </trkpt>
      <trkpt lat="47.89174" lon="7.02913">
        <ele>822</ele>
        <time>2018-02-23T16:58:04Z</time>
      </trkpt>
      <trkpt lat="47.89232" lon="7.02906">
        <ele>833</ele>
        <time>2018-02-23T16:59:04Z</time>
      </trkpt>
      <trkpt lat="47.89485" lon="7.03117">
        <ele>883</ele>
        <time>2018-02-23T17:00:04Z</time>
      </trkpt>
      <trkpt lat="47.89722" lon="7.03243">
        <ele>893</ele>
        <time>2018-02-23T17:01:04Z</time>
      </trkpt>
      <trkpt lat="47.8985" lon="7.03417">
        <ele>912</ele>
        <time>2018-02-23T17:02:04Z</time>
      </trkpt>
      <trkpt lat="47.90141" lon="7.03806">
        <ele>967</ele>
        <time>2018-02-23T17:03:04Z</time>
      </trkpt>
      <trkpt lat="47.90449" lon="7.0419">
        <ele>993</ele>
        <time>2018-02-23T17:04:04Z</time>
      </trkpt>
      <trkpt lat="47.90528" lon="7.04248">
        <ele>996</ele>
        <time>2018-02-23T17:05:04Z</time>
      </trkpt>
      <trkpt lat="47.90584" lon="7.04578">
        <ele>1031</ele>
        <time>2018-02-23T17:06:04Z</time>
      </trkpt>
      <trkpt lat="47.90682" lon="7.04831">
        <ele>1056</ele>
        <time>2018-02-23T17:07:04Z</time>
      </trkpt>
      <trkpt lat="47.90744" lon="7.04992">
        <ele>1053</ele>
        <time>2018-02-23T17:08:04Z</time>
      </trkpt>
      <trkpt lat="47.90751" lon="7.05132">
        <ele>1061</ele>
        <time>2018-02-23T17:09:04Z</time>
      </trkpt>
      <trkpt lat="47.90794" lon="7.05222">
        <ele>1091</ele>
        <time>2018-02-23T17:10:04Z</time>
      </trkpt>
      <trkpt lat="47.90796" lon="7.0532">
        <ele>1102</ele>
        <time>2018-02-23T17:11:04Z</time>
      </trkpt>
      <trkpt lat="47.90885" lon="7.0526">
        <ele>1139</ele>
        <time>2018-02-23T17:12:04Z</time>
      </trkpt>
      <trkpt lat="47.90909" lon="7.05353">
        <ele>1152</ele>
        <time>2018-02-23T17:13:04Z</time>
      </trkpt>
      <trkpt lat="47.90997" lon="7.05205">
        <ele>1173</ele>
        <time>2018-02-23T17:14:04Z</time>
      </trkpt>
      <trkpt lat="47.91021" lon="7.0529">
        <ele>1179</ele>
        <time>2018-02-23T17:15:04Z</time>
      </trkpt>
      <trkpt lat="47.91079" lon="7.05393">
        <ele>1201</ele>
        <time>2018-02-23T17:16:04Z</time>
      </trkpt>
      <trkpt lat="47.91075" lon="7.05183">
        <ele>1179</ele>
        <time>2018-02-23T17:17:04Z</time>
      </trkpt>
      <trkpt lat="47.9108" lon="7.05074">
        <ele>1184</ele>
        <time>2018-02-23T17:18:04Z</time>
      </trkpt>
      <trkpt lat="47.91144" lon="7.04988">
        <ele>1176</ele>
        <time>2018-02-23T17:19:04Z</time>
      </trkpt>
      <trkpt lat="47.91233" lon="7.04883">
        <ele>1171</ele>
        <time>2018-02-23T17:20:04Z</time>
      </trkpt>
      <trkpt lat="47.91315" lon="7.04638">
        <ele>1182</ele>
        <time>2018-02-23T17:21:04Z</time>
      </trkpt>
      <trkpt lat="47.91395" lon="7.04477">
        <ele>1184</ele>
        <time>2018-02-23T17:22:04Z</time>
      </trkpt>
      <trkpt lat="47.91542" lon="7.04415">
        <ele>1192</ele>
        <time>2018-02-23T17:23:04Z</time>
      </trkpt>
      <trkpt lat="47.9167" lon="7.04333">
        <ele>1194</ele>
        <time>2018-02-23T17:24:04Z</time>
      </trkpt>
      <trkpt lat="47.91756" lon="7.042">
        <ele>1185</ele>
        <time>2018-02-23T17:25:04Z</time>
      </trkpt>
      <trkpt lat="47.91881" lon="7.04121">
        <ele>1192</ele>
        <time>2018-02-23T17:26:04Z</time>
      </trkpt>
      <trkpt lat="47.91989" lon="7.04054">
        <ele>1192</ele>
        <time>2018-02-23T17:27:04Z</time>
      </trkpt>
      <trkpt lat="47.92088" lon="7.03984">
        <ele>1189</ele>
        <time>2018-02-23T17:28:04Z</time>
      </trkpt>
      <trkpt lat="47.92191" lon="7.03855">
        <ele>1180</ele>
        <time>2018-02-23T17:29:04Z</time>
      </trkpt>
      <trkpt lat="47.92278" lon="7.03683">
        <ele>1173</ele>
        <time>2018-02-23T17:30:04Z</time>
      </trkpt>
      <trkpt lat="47.92321" lon="7.03479">
        <ele>1172</ele>
        <time>2018-02-23T17:31:04Z</time>
      </trkpt>
      <trkpt lat="47.92277" lon="7.03406">
        <ele>1173</ele>
        <time>2018-02-23T17:32:04Z</time>
      </trkpt>
      <trkpt lat="47.92307" lon="7.03211">
        <ele>1182</ele>
        <time>2018-02-23T17:33:04Z</time>
      </trkpt>
      <trkpt lat="47.92412" lon="7.03029">
        <ele>1188</ele>
        <time>2018-02-23T17:34:04Z</time>
      </trkpt>
      <trkpt lat="47.92452" lon="7.02934">
        <ele>1197</ele>
        <time>2018-02-23T17:35:04Z</time>
      </trkpt>
      <trkpt lat="47.92605" lon="7.02851">
        <ele>1212</ele>
        <time>2018-02-23T17:36:04Z</time>
      </trkpt>
      <trkpt lat="47.92669" lon="7.0278">
        <ele>1215</ele>
        <time>2018-02-23T17:37:04Z</time>
      </trkpt>
      <trkpt lat="47.92767" lon="7.0254">
        <ele>1220</ele>
        <time>2018-02-23T17:38:04Z</time>
      </trkpt>
      <trkpt lat="47.92812" lon="7.02331">
        <ele>1219</ele>
        <time>2018-02-23T17:39:04Z</time>
      </trkpt>
      <trkpt lat="47.92783" lon="7.02059">
        <ele>1220</ele>
        <time>2018-02-23T17:40:04Z</time>
      </trkpt>
      <trkpt lat="47.92766" lon="7.01962">
        <ele>1231</ele>
        <time>2018-02-23T17:41:04Z</time>
      </trkpt>
      <trkpt lat="47.93022" lon="7.01934">
        <ele>1217</ele>
        <time>2018-02-23T17:42:04Z</time>
      </trkpt>
      <trkpt lat="47.93177" lon="7.01975">
        <ele>1208</ele>
        <time>2018-02-23T17:43:04Z</time>
      </trkpt>
      <trkpt lat="47.93394" lon="7.02113">
        <ele>1210</ele>
        <time>2018-02-23T17:44:04Z</time>
      </trkpt>
      <trkpt lat="47.93479" lon="7.02059">
        <ele>1211</ele>
        <time>2018-02-23T17:45:04Z</time>
      </trkpt>
      <trkpt lat="47.93529" lon="7.02057">
        <ele>1209</ele>
        <time>2018-02-23T17:46:04Z</time>
      </trkpt>
      <trkpt lat="47.9373" lon="7.02231">
        <ele>1207</ele>
        <time>2018-02-23T17:47:04Z</time>
      </trkpt>
      <trkpt lat="47.94153" lon="7.02344">
        <ele>1215</ele>
        <time>2018-02-23T17:48:04Z</time>
      </trkpt>
      <trkpt lat="47.9456" lon="7.02314">
        <ele>1260</ele>
        <time>2018-02-23T17:49:04Z</time>
      </trkpt>
      <trkpt lat="47.94925" lon="7.02044">
        <ele>1208</ele>
        <time>2018-02-23T17:50:04Z</time>
      </trkpt>
      <trkpt lat="47.9512" lon="7.01954">
        <ele>1185</ele>
        <time>2018-02-23T17:51:04Z</time>
      </trkpt>
      <trkpt lat="47.95234" lon="7.01907">
        <ele>1176</ele>
        <time>2018-02-23T17:52:04Z</time>
      </trkpt>
      <trkpt lat="47.95316" lon="7.01735">
        <ele>1170</ele>
        <time>2018-02-23T17:53:04Z</time>
      </trkpt>
      <trkpt lat="47.95356" lon="7.0158">
        <ele>1174</ele>
        <time>2018-02-23T17:54:04Z</time>
      </trkpt>
      <trkpt lat="47.95439" lon="7.01241">
        <ele>1184</ele>
        <time>2018-02-23T17:55:04Z</time>
      </trkpt>
      <trkpt lat="47.95515" lon="7.00855">
        <ele>1203</ele>
        <time>2018-02-23T17:56:04Z</time>
      </trkpt>
      <trkpt lat="47.95584" lon="7.00632">
        <ele>1201</ele>
        <time>2018-02-23T17:57:04Z</time>
      </trkpt>
      <trkpt lat="47.95799" lon="7.00505">
        <ele>1202</ele>
        <time>2018-02-23T17:58:04Z</time>
      </trkpt>
      <trkpt lat="47.95935" lon="7.00484">
        <ele>1204</ele>
        <time>2018-02-23T17:59:04Z</time>
      </trkpt>
      <trkpt lat="47.96011" lon="7.00381">
        <ele>1209</ele>
        <time>2018-02-23T18:00:04Z</time>
      </trkpt>
      <trkpt lat="47.96133" lon="7.00205">
        <ele>1217</ele>
        <time>2018-02-23T18:01:04Z</time>
      </trkpt>
      <trkpt lat="47.96218" lon="6.99999">
        <ele>1218</ele>
        <time>2018-02-23T18:02:04Z</time>
      </trkpt>
      <trkpt lat="47.9629" lon="6.99784">
        <ele>1213</ele>
        <time>2018-02-23T18:03:04Z</time>
      </trkpt>
      <trkpt lat="47.96474" lon="6.99711">
        <ele>1208</ele>
        <time>2018-02-23T18:04:04Z</time>
      </trkpt>
      <trkpt lat="47.96672" lon="6.99572">
        <ele>1194</ele>
        <time>2018-02-23T18:05:04Z</time>
      </trkpt>
      <trkpt lat="47.96731" lon="6.99508">
        <ele>1192</ele>
        <time>2018-02-23T18:06:04Z</time>
      </trkpt>
      <trkpt lat="47.96855" lon="6.99355">
        <ele>1214</ele>
        <time>2018-02-23T18:07:04Z</time>
      </trkpt>
      <trkpt lat="47.96918" lon="6.99231">
        <ele>1233</ele>
        <time>2018-02-23T18:08:04Z</time>
      </trkpt>
      <trkpt lat="47.97044" lon="6.99194">
        <ele>1239</ele>
        <time>2018-02-23T18:09:04Z</time>
      </trkpt>
      <trkpt lat="47.97123" lon="6.99113">
        <ele>1240</ele>
        <time>2018-02-23T18:10:04Z</time>
      </trkpt>
      <trkpt lat="47.97449" lon="6.99057">
        <ele>1261</ele>
        <time>2018-02-23T18:11:04Z</time>
      </trkpt>
      <trkpt lat="47.97573" lon="6.98896">
        <ele>1251</ele>
        <time>2018-02-23T18:12:04Z</time>
      </trkpt>
      <trkpt lat="47.97737" lon="6.98669">
        <ele>1212</ele>
        <time>2018-02-23T18:13:04Z</time>
      </trkpt>
      <trkpt lat="47.97877" lon="6.9854">
        <ele>1193</ele>
        <time>2018-02-23T18:14:04Z</time>
      </trkpt>
      <trkpt lat="47.98083" lon="6.984">
        <ele>1193</ele>
        <time>2018-02-23T18:15:04Z</time>
      </trkpt>
      <trkpt lat="47.98258" lon="6.98338">
        <ele>1214</ele>
        <time>2018-02-23T18:16:04Z</time>
      </trkpt>
      <trkpt lat="47.9841" lon="6.98205">
        <ele>1214</ele>
        <time>2018-02-23T18:17:04Z</time>
      </trkpt>
      <trkpt lat="47.9855" lon="6.98029">
        <ele>1222</ele>
        <time>2018-02-23T18:18:04Z</time>
      </trkpt>
      <trkpt lat="47.98676" lon="6.98001">
        <ele>1232</ele>
        <time>2018-02-23T18:19:04Z</time>
      </trkpt>
      <trkpt lat="47.98723" lon="6.97971">
        <ele>1231</ele>
        <time>2018-02-23T18:20:04Z</time>
      </trkpt>
      <trkpt lat="47.98894" lon="6.98006">
        <ele>1239</ele>
        <time>2018-02-23T18:21:04Z</time>
      </trkpt>
      <trkpt lat="47.99038" lon="6.98025">
        <ele>1241</ele>
        <time>2018-02-23T18:22:04Z</time>
      </trkpt>
      <trkpt lat="47.9923" lon="6.97909">
        <ele>1244</ele>
        <time>2018-02-23T18:23:04Z</time>
      </trkpt>
      <trkpt lat="47.99416" lon="6.97847">
        <ele>1249</ele>
        <time>2018-02-23T18:24:04Z</time>
      </trkpt>
      <trkpt lat="47.99759" lon="6.97845">
        <ele>1257</ele>
        <time>2018-02-23T18:25:04Z</time>
      </trkpt>
      <trkpt lat="47.99866" lon="6.97718">
        <ele>1253</ele>
        <time>2018-02-23T18:26:04Z</time>
      </trkpt>
      <trkpt lat="47.99931" lon="6.97666">
        <ele>1250</ele>
        <time>2018-02-23T18:27:04Z</time>
      </trkpt>
      <trkpt lat="48.00283" lon="6.97746">
        <ele>1224</ele>
        <time>2018-02-23T18:28:04Z</time>
      </trkpt>
      <trkpt lat="48.00408" lon="6.9799">
        <ele>1217</ele>
        <time>2018-02-23T18:29:04Z</time>
      </trkpt>
      <trkpt lat="48.00537" lon="6.98006">
        <ele>1205</ele>
        <time>2018-02-23T18:30:04Z</time>
      </trkpt>
      <trkpt lat="48.00514" lon="6.97879">
        <ele>1194</ele>
        <time>2018-02-23T18:31:04Z</time>
      </trkpt>
      <trkpt lat="48.00603" lon="6.9787">
        <ele>1191</ele>
        <time>2018-02-23T18:32:04Z</time>
      </trkpt>
      <trkpt lat="48.00666" lon="6.97778">
        <ele>1193</ele>
        <time>2018-02-23T18:33:04Z</time>
      </trkpt>
      <trkpt lat="48.00708" lon="6.97551">
        <ele>1174</ele>
        <time>2018-02-23T18:34:04Z</time>
      </trkpt>
      <trkpt lat="48.00757" lon="6.97471">
        <ele>1177</ele>
        <time>2018-02-23T18:35:04Z</time>
      </trkpt>
      <trkpt lat="48.00735" lon="6.97177">
        <ele>1154</ele>
        <time>2018-02-23T18:36:04Z</time>
      </trkpt>
      <trkpt lat="48.00636" lon="6.96999">
        <ele>1129</ele>
        <time>2018-02-23T18:37:04Z</time>
      </trkpt>
      <trkpt lat="48.00587" lon="6.96971">
        <ele>1117</ele>
        <time>2018-02-23T18:38:04Z</time>
      </trkpt>
      <trkpt lat="48.0057" lon="6.9692">
        <ele>1102</ele>
        <time>2018-02-23T18:39:04Z</time>
      </trkpt>
      <trkpt lat="48.00541" lon="6.9692">
        <ele>1086</ele>
        <time>2018-02-23T18:40:04Z</time>
      </trkpt>
      <trkpt lat="48.00513" lon="6.96907">
        <ele>1070</ele>
        <time>2018-02-23T18:41:04Z</time>
      </trkpt>
      <trkpt lat="48.00472" lon="6.96866">
        <ele>1049</ele>
        <time>2018-02-23T18:42:04Z</time>
      </trkpt>
      <trkpt lat="48.00431" lon="6.96797">
        <ele>1033</ele>
        <time>2018-02-23T18:43:04Z</time>
      </trkpt>
      <trkpt lat="48.00398" lon="6.96718">
        <ele>1026</ele>
        <time>2018-02-23T18:44:04Z</time>
      </trkpt>
      <trkpt lat="48.00301" lon="6.96594">
        <ele>1037</ele>
        <time>2018-02-23T18:45:04Z</time>
      </trkpt>
      <trkpt lat="48.00246" lon="6.96508">
        <ele>1054</ele>
        <time>2018-02-23T18:46:04Z</time>
      </trkpt>
      <trkpt lat="48.0009" lon="6.96392">
        <ele>1078</ele>
        <time>2018-02-23T18:47:04Z</time>
      </trkpt>
      <trkpt lat="47.99935" lon="6.96364">
        <ele>1069</ele>
        <time>2018-02-23T18:48:04Z</time>
      </trkpt>
      <trkpt lat="47.99806" lon="6.96291">
        <ele>1073</ele>
        <time>2018-02-23T18:49:04Z</time>
      </trkpt>
      <trkpt lat="47.99754" lon="6.96218">
        <ele>1077</ele>
        <time>2018-02-23T18:50:04Z</time>
      </trkpt>
      <trkpt lat="47.9978" lon="6.96076">
        <ele>1081</ele>
        <time>2018-02-23T18:51:04Z</time>
      </trkpt>
      <trkpt lat="47.99862" lon="6.95971">
        <ele>1101</ele>
        <time>2018-02-23T18:52:04Z</time>
      </trkpt>
      <trkpt lat="47.99944" lon="6.95819">
        <ele>1083</ele>
        <time>2018-02-23T18:53:04Z</time>
      </trkpt>
      <trkpt lat="48.00047" lon="6.95682">
        <ele>1082</ele>
        <time>2018-02-23T18:54:04Z</time>
      </trkpt>
      <trkpt lat="48.00034" lon="6.95585">
        <ele>1063</ele>
        <time>2018-02-23T18:55:04Z</time>
      </trkpt>
      <trkpt lat="47.99983" lon="6.95128">
        <ele>1026</ele>
        <time>2018-02-23T18:56:04Z</time>
      </trkpt>
      <trkpt lat="47.99978" lon="6.94924">
        <ele>1006</ele>
        <time>2018-02-23T18:57:04Z</time>
      </trkpt>
      <trkpt lat="47.99944" lon="6.94969">
        <ele>995</ele>
        <time>2018-02-23T18:58:04Z</time>
      </trkpt>
      <trkpt lat="47.99968" lon="6.94759">
        <ele>975</ele>
        <time>2018-02-23T18:59:04Z</time>
      </trkpt>
      <trkpt lat="48.00036" lon="6.94564">
        <ele>970</ele>
        <time>2018-02-23T19:00:04Z</time>
      </trkpt>
      <trkpt lat="48.00042" lon="6.94437">
        <ele>971</ele>
        <time>2018-02-23T19:01:04Z</time>
      </trkpt>
      <trkpt lat="48.00016" lon="6.94409">
        <ele>980</ele>
        <time>2018-02-23T19:02:04Z</time>
      </trkpt>
      <trkpt lat="48.00042" lon="6.94276">
        <ele>979</ele>
        <time>2018-02-23T19:03:04Z</time>
      </trkpt>
      <trkpt lat="48.00009" lon="6.94165">
        <ele>986</ele>
        <time>2018-02-23T19:04:04Z</time>
      </trkpt>
      <trkpt lat="47.99902" lon="6.94002">
        <ele>1000</ele>
        <time>2018-02-23T19:05:04Z</time>
      </trkpt>
      <trkpt lat="47.99694" lon="6.93935">
        <ele>1023</ele>
        <time>2018-02-23T19:06:04Z</time>
      </trkpt>
      <trkpt lat="47.99489" lon="6.93796">
        <ele>1032</ele>
        <time>2018-02-23T19:07:04Z</time>
      </trkpt>
      <trkpt lat="47.99311" lon="6.93677">
        <ele>1049</ele>
        <time>2018-02-23T19:08:04Z</time>
      </trkpt>
      <trkpt lat="47.99183" lon="6.9351">
        <ele>1055</ele>
        <time>2018-02-23T19:09:04Z</time>
      </trkpt>
      <trkpt lat="47.991" lon="6.93302">
        <ele>1073</ele>
        <time>2018-02-23T19:10:04Z</time>
      </trkpt>
      <trkpt lat="47.991" lon="6.93008">
        <ele>1068</ele>
        <time>2018-02-23T19:11:04Z</time>
      </trkpt>
      <trkpt lat="47.99062" lon="6.92742">
        <ele>1069</ele>
        <time>2018-02-23T19:12:04Z</time>
      </trkpt>
      <trkpt lat="47.98927" lon="6.92817">
        <ele>1065</ele>
        <time>2018-02-23T19:13:04Z</time>
      </trkpt>
      <trkpt lat="47.98771" lon="6.92847">
        <ele>1061</ele>
        <time>2018-02-23T19:14:04Z</time>
      </trkpt>
      <trkpt lat="47.98642" lon="6.92909">
        <ele>1057</ele>
        <time>2018-02-23T19:15:04Z</time>
      </trkpt>
      <trkpt lat="47.98598" lon="6.93023">
        <ele>1051</ele>
        <time>2018-02-23T19:16:04Z</time>
      </trkpt>
      <trkpt lat="47.9864" lon="6.93163">
        <ele>1053</ele>
        <time>2018-02-23T19:17:04Z</time>
      </trkpt>
      <trkpt lat="47.98621" lon="6.93341">
        <ele>1042</ele>
        <time>2018-02-23T19:18:04Z</time>
      </trkpt>
      <trkpt lat="47.9856" lon="6.93476">
        <ele>1038</ele>
        <time>2018-02-23T19:19:04Z</time>
      </trkpt>
      <trkpt lat="47.98462" lon="6.9359">
        <ele>1030</ele>
        <time>2018-02-23T19:20:04Z</time>
      </trkpt>
      <trkpt lat="47.98377" lon="6.93675">
        <ele>1018</ele>
        <time>2018-02-23T19:21:04Z</time>
      </trkpt>
      <trkpt lat="47.98334" lon="6.93783">
        <ele>1021</ele>
        <time>2018-02-23T19:22:04Z</time>
      </trkpt>
      <trkpt lat="47.98209" lon="6.93768">
        <ele>1016</ele>
        <time>2018-02-23T19:23:04Z</time>
      </trkpt>
      <trkpt lat="47.98067" lon="6.93729">
        <ele>1017</ele>
        <time>2018-02-23T19:24:04Z</time>
      </trkpt>
      <trkpt lat="47.97992" lon="6.93551">
        <ele>1018</ele>
        <time>2018-02-23T19:25:04Z</time>
      </trkpt>
      <trkpt lat="47.97899" lon="6.93409">
        <ele>1020</ele>
        <time>2018-02-23T19:26:04Z</time>
      </trkpt>
      <trkpt lat="47.97783" lon="6.93403">
        <ele>1017</ele>
        <time>2018-02-23T19:27:04Z</time>
      </trkpt>
      <trkpt lat="47.97684" lon="6.93489">
        <ele>1021</ele>
        <time>2018-02-23T19:28:04Z</time>
      </trkpt>
      <trkpt lat="47.9757" lon="6.93547">
        <ele>1028</ele>
        <time>2018-02-23T19:29:04Z</time>
      </trkpt>
      <trkpt lat="47.97481" lon="6.93414">
        <ele>1014</ele>
        <time>2018-02-23T19:30:04Z</time>
      </trkpt>
      <trkpt lat="47.97372" lon="6.93255">
        <ele>1014</ele>
        <time>2018-02-23T19:31:04Z</time>
      </trkpt>
      <trkpt lat="47.97297" lon="6.93057">
        <ele>1019</ele>
        <time>2018-02-23T19:32:04Z</time>
      </trkpt>
      <trkpt lat="47.97178" lon="6.9286">
        <ele>1037</ele>
        <time>2018-02-23T19:33:04Z</time>
      </trkpt>
      <trkpt lat="47.97017" lon="6.92699">
        <ele>1052</ele>
        <time>2018-02-23T19:34:04Z</time>
      </trkpt>
      <trkpt lat="47.96855" lon="6.9254">
        <ele>1074</ele>
        <time>2018-02-23T19:35:04Z</time>
      </trkpt>
      <trkpt lat="47.96721" lon="6.92472">
        <ele>1086</ele>
        <time>2018-02-23T19:36:04Z</time>
      </trkpt>
      <trkpt lat="47.96544" lon="6.9251">
        <ele>1104</ele>
        <time>2018-02-23T19:37:04Z</time>
      </trkpt>
      <trkpt lat="47.96419" lon="6.92454">
        <ele>1112</ele>
        <time>2018-02-23T19:38:04Z</time>
      </trkpt>
      <trkpt lat="47.96332" lon="6.92306">
        <ele>1127</ele>
        <time>2018-02-23T19:39:04Z</time>
      </trkpt>
      <trkpt lat="47.96301" lon="6.92244">
        <ele>1130</ele>
        <time>2018-02-23T19:40:04Z</time>
      </trkpt>
      <trkpt lat="47.96155" lon="6.92199">
        <ele>1145</ele>
        <time>2018-02-23T19:41:04Z</time>
      </trkpt>
      <trkpt lat="47.96021" lon="6.92122">
        <ele>1151</ele>
        <time>2018-02-23T19:42:04Z</time>
      </trkpt>
      <trkpt lat="47.95947" lon="6.92072">
        <ele>1144</ele>
        <time>2018-02-23T19:43:04Z</time>
      </trkpt>
      <trkpt lat="47.9588" lon="6.9209">
        <ele>1145</ele>
        <time>2018-02-23T19:44:04Z</time>
      </trkpt>
      <trkpt lat="47.9578" lon="6.923">
        <ele>1162</ele>
        <time>2018-02-23T19:45:04Z</time>
      </trkpt>
      <trkpt lat="47.95651" lon="6.92433">
        <ele>1159</ele>
        <time>2018-02-23T19:46:04Z</time>
      </trkpt>
      <trkpt lat="47.95549" lon="6.92461">
        <ele>1146</ele>
        <time>2018-02-23T19:47:04Z</time>
      </trkpt>
      <trkpt lat="47.95395" lon="6.92386">
        <ele>1138</ele>
        <time>2018-02-23T19:48:04Z</time>
      </trkpt>
      <trkpt lat="47.95248" lon="6.92364">
        <ele>1147</ele>
        <time>2018-02-23T19:49:04Z</time>
      </trkpt>
      <trkpt lat="47.95125" lon="6.92536">
        <ele>1137</ele>
        <time>2018-02-23T19:50:04Z</time>
      </trkpt>
      <trkpt lat="47.95064" lon="6.92598">
        <ele>1128</ele>
        <time>2018-02-23T19:51:04Z</time>
      </trkpt>
      <trkpt lat="47.9504" lon="6.92495">
        <ele>1142</ele>
        <time>2018-02-23T19:52:04Z</time>
      </trkpt>
      <trkpt lat="47.95027" lon="6.92394">
        <ele>1133</ele>
        <time>2018-02-23T19:53:04Z</time>
      </trkpt>
      <trkpt lat="47.94981" lon="6.92448">
        <ele>1127</ele>
        <time>2018-02-23T19:54:04Z</time>
      </trkpt>
      <trkpt lat="47.94968" lon="6.92293">
        <ele>1114</ele>
        <time>2018-02-23T19:55:04Z</time>
      </trkpt>
      <trkpt lat="47.94922" lon="6.92229">
        <ele>1113</ele>
        <time>2018-02-23T19:56:04Z</time>
      </trkpt>
      <trkpt lat="47.94892" lon="6.92255">
        <ele>1121</ele>
        <time>2018-02-23T19:57:04Z</time>
      </trkpt>
      <trkpt lat="47.94873" lon="6.92212">
        <ele>1125</ele>
        <time>2018-02-23T19:58:04Z</time>
      </trkpt>
      <trkpt lat="47.94823" lon="6.92231">
        <ele>1138</ele>
        <time>2018-02-23T19:59:04Z</time>
      </trkpt>
      <trkpt lat="47.94747" lon="6.92105">
        <ele>1144</ele>
        <time>2018-02-23T20:00:04Z</time>
      </trkpt>
      <trkpt lat="47.94611" lon="6.9203">
        <ele>1144</ele>
        <time>2018-02-23T20:01:04Z</time>
      </trkpt>
      <trkpt lat="47.94439" lon="6.92032">
        <ele>1121</ele>
        <time>2018-02-23T20:02:04Z</time>
      </trkpt>
      <trkpt lat="47.9438" lon="6.92025">
        <ele>1113</ele>
        <time>2018-02-23T20:03:04Z</time>
      </trkpt>
      <trkpt lat="47.94315" lon="6.92113">
        <ele>1088</ele>
        <time>2018-02-23T20:04:04Z</time>
      </trkpt>
      <trkpt lat="47.94249" lon="6.92152">
        <ele>1080</ele>
        <time>2018-02-23T20:05:04Z</time>
      </trkpt>
      <trkpt lat="47.941" lon="6.9227">
        <ele>1082</ele>
        <time>2018-02-23T20:06:04Z</time>
      </trkpt>
      <trkpt lat="47.94001" lon="6.92276">
        <ele>1081</ele>
        <time>2018-02-23T20:07:04Z</time>
      </trkpt>
      <trkpt lat="47.93949" lon="6.92242">
        <ele>1075</ele>
        <time>2018-02-23T20:08:04Z</time>
      </trkpt>
      <trkpt lat="47.9395" lon="6.9218">
        <ele>1067</ele>
        <time>2018-02-23T20:09:04Z</time>
      </trkpt>
      <trkpt lat="47.93936" lon="6.92148">
        <ele>1062</ele>
        <time>2018-02-23T20:10:04Z</time>
      </trkpt>
      <trkpt lat="47.93914" lon="6.9216">
        <ele>1060</ele>
        <time>2018-02-23T20:11:04Z</time>
      </trkpt>
      <trkpt lat="47.93906" lon="6.92111">
        <ele>1054</ele>
        <time>2018-02-23T20:12:04Z</time>
      </trkpt>
      <trkpt lat="47.93855" lon="6.92208">
        <ele>1056</ele>
        <time>2018-02-23T20:13:04Z</time>
      </trkpt>
      <trkpt lat="47.93791" lon="6.92186">
        <ele>1061</ele>
        <time>2018-02-23T20:14:04Z</time>
      </trkpt>
      <trkpt lat="47.93773" lon="6.92253">
        <ele>1069</ele>
        <time>2018-02-23T20:15:04Z</time>
      </trkpt>
      <trkpt lat="47.9373" lon="6.92214">
        <ele>1077</ele>
        <time>2018-02-23T20:16:04Z</time>
      </trkpt>
      <trkpt lat="47.93707" lon="6.92268">
        <ele>1091</ele>
        <time>2018-02-23T20:17:04Z</time>
      </trkpt>
      <trkpt lat="47.93676" lon="6.92253">
        <ele>1100</ele>
        <time>2018-02-23T20:18:04Z</time>
      </trkpt>
      <trkpt lat="47.93692" lon="6.92326">
        <ele>1103</ele>
        <time>2018-02-23T20:19:04Z</time>
      </trkpt>
      <trkpt lat="47.93671" lon="6.92321">
        <ele>1112</ele>
        <time>2018-02-23T20:20:04Z</time>
      </trkpt>
      <trkpt lat="47.93646" lon="6.9239">
        <ele>1125</ele>
        <time>2018-02-23T20:21:04Z</time>
      </trkpt>
      <trkpt lat="47.9361" lon="6.92487">
        <ele>1131</ele>
        <time>2018-02-23T20:22:04Z</time>
      </trkpt>
      <trkpt lat="47.93499" lon="6.92508">
        <ele>1137</ele>
        <time>2018-02-23T20:23:04Z</time>
      </trkpt>
      <trkpt lat="47.9338" lon="6.92491">
        <ele>1130</ele>
        <time>2018-02-23T20:24:04Z</time>
      </trkpt>
      <trkpt lat="47.93265" lon="6.92407">
        <ele>1139</ele>
        <time>2018-02-23T20:25:04Z</time>
      </trkpt>
      <trkpt lat="47.93204" lon="6.92414">
        <ele>1139</ele>
        <time>2018-02-23T20:26:04Z</time>
      </trkpt>
      <trkpt lat="47.93111" lon="6.92566">
        <ele>1140</ele>
        <time>2018-02-23T20:27:04Z</time>
      </trkpt>
      <trkpt lat="47.93066" lon="6.92583">
        <ele>1151</ele>
        <time>2018-02-23T20:28:04Z</time>
      </trkpt>
      <trkpt lat="47.92797" lon="6.92465">
        <ele>1105</ele>
        <time>2018-02-23T20:29:04Z</time>
      </trkpt>
      <trkpt lat="47.92675" lon="6.92308">
        <ele>1071</ele>
        <time>2018-02-23T20:30:04Z</time>
      </trkpt>
      <trkpt lat="47.92769" lon="6.92673">
        <ele>1056</ele>
        <time>2018-02-23T20:31:04Z</time>
      </trkpt>
      <trkpt lat="47.92725" lon="6.92555">
        <ele>1059</ele>
        <time>2018-02-23T20:32:04Z</time>
      </trkpt>
      <trkpt lat="47.92655" lon="6.92424">
        <ele>1057</ele>
        <time>2018-02-23T20:33:04Z</time>
      </trkpt>
      <trkpt lat="47.92615" lon="6.92281">
        <ele>1051</ele>
        <time>2018-02-23T20:34:04Z</time>
      </trkpt>
      <trkpt lat="47.92622" lon="6.92186">
        <ele>1042</ele>
        <time>2018-02-23T20:35:04Z</time>
      </trkpt>
      <trkpt lat="47.92681" lon="6.92124">
        <ele>1036</ele>
        <time>2018-02-23T20:36:04Z</time>
      </trkpt>
      <trkpt lat="47.92606" lon="6.92096">
        <ele>1022</ele>
        <time>2018-02-23T20:37:04Z</time>
      </trkpt>
      <trkpt lat="47.9262" lon="6.92068">
        <ele>1016</ele>
        <time>2018-02-23T20:38:04Z</time>
      </trkpt>
      <trkpt lat="47.92546" lon="6.91939">
        <ele>981</ele>
        <time>2018-02-23T20:39:04Z</time>
      </trkpt>
      <trkpt lat="47.92426" lon="6.91819">
        <ele>950</ele>
        <time>2018-02-23T20:40:04Z</time>
      </trkpt>
      <trkpt lat="47.92357" lon="6.91757">
        <ele>922</ele>
        <time>2018-02-23T20:41:04Z</time>
      </trkpt>
      <trkpt lat="47.92373" lon="6.91727">
        <ele>919</ele>
        <time>2018-02-23T20:42:04Z</time>
      </trkpt>
      <trkpt lat="47.92399" lon="6.91697">
        <ele>917</ele>
        <time>2018-02-23T20:43:04Z</time>
      </trkpt>
      <trkpt lat="47.92272" lon="6.91742">
        <ele>900</ele>
        <time>2018-02-23T20:44:04Z</time>
      </trkpt>
      <trkpt lat="47.92211" lon="6.91772">
        <ele>898</ele>
        <time>2018-02-23T20:45:04Z</time>
      </trkpt>
      <trkpt lat="47.92106" lon="6.91791">
        <ele>905</ele>
        <time>2018-02-23T20:46:04Z</time>
      </trkpt>
      <trkpt lat="47.92008" lon="6.91892">
        <ele>905</ele>
        <time>2018-02-23T20:47:04Z</time>
      </trkpt>
      <trkpt lat="47.91947" lon="6.91954">
        <ele>917</ele>
        <time>2018-02-23T20:48:04Z</time>
      </trkpt>
      <trkpt lat="47.9187" lon="6.91963">
        <ele>937</ele>
        <time>2018-02-23T20:49:04Z</time>
      </trkpt>
      <trkpt lat="47.91858" lon="6.92109">
        <ele>951</ele>
        <time>2018-02-23T20:50:04Z</time>
      </trkpt>
      <trkpt lat="47.91811" lon="6.92253">
        <ele>976</ele>
        <time>2018-02-23T20:51:04Z</time>
      </trkpt>
      <trkpt lat="47.91709" lon="6.92328">
        <ele>990</ele>
        <time>2018-02-23T20:52:04Z</time>
      </trkpt>
      <trkpt lat="47.91733" lon="6.92384">
        <ele>1001</ele>
        <time>2018-02-23T20:53:04Z</time>
      </trkpt>
      <trkpt lat="47.914" lon="6.92418">
        <ele>1055</ele>
        <time>2018-02-23T20:54:04Z</time>
      </trkpt>
      <trkpt lat="47.91165" lon="6.92405">
        <ele>1092</ele>
        <time>2018-02-23T20:55:04Z</time>
      </trkpt>
      <trkpt lat="47.90939" lon="6.92409">
        <ele>1112</ele>
        <time>2018-02-23T20:56:04Z</time>
      </trkpt>
      <trkpt lat="47.90834" lon="6.92399">
        <ele>1123</ele>
        <time>2018-02-23T20:57:04Z</time>
      </trkpt>
      <trkpt lat="47.90698" lon="6.92313">
        <ele>1124</ele>
        <time>2018-02-23T20:58:04Z</time>
      </trkpt>
      <trkpt lat="47.90593" lon="6.92227">
        <ele>1131</ele>
        <time>2018-02-23T20:59:04Z</time>
      </trkpt>
      <trkpt lat="47.90506" lon="6.9207">
        <ele>1140</ele>
        <time>2018-02-23T21:00:04Z</time>
      </trkpt>
      <trkpt lat="47.90432" lon="6.91873">
        <ele>1146</ele>
        <time>2018-02-23T21:01:04Z</time>
      </trkpt>
      <trkpt lat="47.90436" lon="6.91682">
        <ele>1150</ele>
        <time>2018-02-23T21:02:04Z</time>
      </trkpt>
      <trkpt lat="47.90332" lon="6.91575">
        <ele>1144</ele>
        <time>2018-02-23T21:03:04Z</time>
      </trkpt>
      <trkpt lat="47.90252" lon="6.91465">
        <ele>1139</ele>
        <time>2018-02-23T21:04:04Z</time>
      </trkpt>
      <trkpt lat="47.90178" lon="6.91515">
        <ele>1148</ele>
        <time>2018-02-23T21:05:04Z</time>
      </trkpt>
      <trkpt lat="47.90086" lon="6.9162">
        <ele>1155</ele>
        <time>2018-02-23T21:06:04Z</time>
      </trkpt>
      <trkpt lat="47.89971" lon="6.91753">
        <ele>1164</ele>
        <time>2018-02-23T21:07:04Z</time>
      </trkpt>
      <trkpt lat="47.89885" lon="6.91699">
        <ele>1157</ele>
        <time>2018-02-23T21:08:04Z</time>
      </trkpt>
      <trkpt lat="47.89813" lon="6.91557">
        <ele>1135</ele>
        <time>2018-02-23T21:09:04Z</time>
      </trkpt>
      <trkpt lat="47.89778" lon="6.91351">
        <ele>1098</ele>
        <time>2018-02-23T21:10:04Z</time>
      </trkpt>
      <trkpt lat="47.89758" lon="6.91251">
        <ele>1092</ele>
        <time>2018-02-23T21:11:04Z</time>
      </trkpt>
      <trkpt lat="47.8976" lon="6.9112">
        <ele>1087</ele>
        <time>2018-02-23T21:12:04Z</time>
      </trkpt>
      <trkpt lat="47.89777" lon="6.90963">
        <ele>1066</ele>
        <time>2018-02-23T21:13:04Z</time>
      </trkpt>
      <trkpt lat="47.8975" lon="6.90746">
        <ele>1013</ele>
        <time>2018-02-23T21:14:04Z</time>
      </trkpt>
      <trkpt lat="47.89721" lon="6.90553">
        <ele>978</ele>
        <time>2018-02-23T21:15:04Z</time>
      </trkpt>
      <trkpt lat="47.89698" lon="6.90354">
        <ele>946</ele>
        <time>2018-02-23T21:16:04Z</time>
      </trkpt>
      <trkpt lat="47.89623" lon="6.90268">
        <ele>927</ele>
        <time>2018-02-23T21:17:04Z</time>
      </trkpt>
      <trkpt lat="47.89517" lon="6.90171">
        <ele>911</ele>
        <time>2018-02-23T21:18:04Z</time>
      </trkpt>
      <trkpt lat="47.89488" lon="6.90133">
        <ele>909</ele>
        <time>2018-02-23T21:19:04Z</time>
      </trkpt>
      <trkpt lat="47.89461" lon="6.89998">
        <ele>884</ele>
        <time>2018-02-23T21:20:04Z</time>
      </trkpt>
      <trkpt lat="47.89419" lon="6.89879">
        <ele>852</ele>
        <time>2018-02-23T21:21:04Z</time>
      </trkpt>
      <trkpt lat="47.89361" lon="6.89854">
        <ele>838</ele>
        <time>2018-02-23T21:22:04Z</time>
      </trkpt>
      <trkpt lat="47.89292" lon="6.89864">
        <ele>827</ele>
        <time>2018-02-23T21:23:04Z</time>
      </trkpt>
      <trkpt lat="47.89223" lon="6.8989">
        <ele>822</ele>
        <time>2018-02-23T21:24:04Z</time>
      </trkpt>
      <trkpt lat="47.89114" lon="6.89815">
        <ele>796</ele>
        <time>2018-02-23T21:25:04Z</time>
      </trkpt>
      <trkpt lat="47.89121" lon="6.89693">
        <ele>800</ele>
        <time>2018-02-23T21:26:04Z</time>
      </trkpt>
      <trkpt lat="47.89074" lon="6.89671">
        <ele>796</ele>
        <time>2018-02-23T21:27:04Z</time>
      </trkpt>
      <trkpt lat="47.89045" lon="6.89736">
        <ele>781</ele>
        <time>2018-02-23T21:28:04Z</time>
      </trkpt>
      <trkpt lat="47.88991" lon="6.89768">
        <ele>761</ele>
        <time>2018-02-23T21:29:04Z</time>
      </trkpt>
      <trkpt lat="47.88993" lon="6.89819">
        <ele>753</ele>
        <time>2018-02-23T21:30:04Z</time>
      </trkpt>
      <trkpt lat="47.88947" lon="6.89822">
        <ele>760</ele>
        <time>2018-02-23T21:31:04Z</time>
      </trkpt>
      <trkpt lat="47.88931" lon="6.89405">
        <ele>736</ele>
        <time>2018-02-23T21:32:04Z</time>
      </trkpt>
      <trkpt lat="47.88872" lon="6.89255">
        <ele>743</ele>
        <time>2018-02-23T21:33:04Z</time>
      </trkpt>
      <trkpt lat="47.88884" lon="6.88985">
        <ele>733</ele>
        <time>2018-02-23T21:34:04Z</time>
      </trkpt>
      <trkpt lat="47.88783" lon="6.88873">
        <ele>763</ele>
        <time>2018-02-23T21:35:04Z</time>
      </trkpt>
      <trkpt lat="47.88833" lon="6.89013">
        <ele>765</ele>
        <time>2018-02-23T21:36:04Z</time>
      </trkpt>
      <trkpt lat="47.88714" lon="6.8888">
        <ele>788</ele>
        <time>2018-02-23T21:37:04Z</time>
      </trkpt>
      <trkpt lat="47.88563" lon="6.88749">
        <ele>799</ele>
        <time>2018-02-23T21:38:04Z</time>
      </trkpt>
      <trkpt lat="47.8844" lon="6.8895">
        <ele>818</ele>
        <time>2018-02-23T21:39:04Z</time>
      </trkpt>
      <trkpt lat="47.8837" lon="6.8915">
        <ele>838</ele>
        <time>2018-02-23T21:40:04Z</time>
      </trkpt>
      <trkpt lat="47.88288" lon="6.89294">
        <ele>858</ele>
        <time>2018-02-23T21:41:04Z</time>
      </trkpt>
      <trkpt lat="47.882" lon="6.89298">
        <ele>840</ele>
        <time>2018-02-23T21:42:04Z</time>
      </trkpt>
      <trkpt lat="47.88135" lon="6.89444">
        <ele>872</ele>
        <time>2018-02-23T21:43:04Z</time>
      </trkpt>
      <trkpt lat="47.88065" lon="6.89609">
        <ele>871</ele>
        <time>2018-02-23T21:44:04Z</time>
      </trkpt>
      <trkpt lat="47.88083" lon="6.89766">
        <ele>881</ele>
        <time>2018-02-23T21:45:04Z</time>
      </trkpt>
      <trkpt lat="47.88132" lon="6.89985">
        <ele>886</ele>
        <time>2018-02-23T21:46:04Z</time>
      </trkpt>
      <trkpt lat="47.8818" lon="6.90128">
        <ele>889</ele>
        <time>2018-02-23T21:47:04Z</time>
      </trkpt>
      <trkpt lat="47.88158" lon="6.90257">
        <ele>886</ele>
        <time>2018-02-23T21:48:04Z</time>
      </trkpt>
      <trkpt lat="47.88078" lon="6.90322">
        <ele>894</ele>
        <time>2018-02-23T21:49:04Z</time>
      </trkpt>
      <trkpt lat="47.88" lon="6.90221">
        <ele>898</ele>
        <time>2018-02-23T21:50:04Z</time>
      </trkpt>
      <trkpt lat="47.87908" lon="6.90171">
        <ele>891</ele>
        <time>2018-02-23T21:51:04Z</time>
      </trkpt>
      <trkpt lat="47.87846" lon="6.90199">
        <ele>903</ele>
        <time>2018-02-23T21:52:04Z</time>
      </trkpt>
      <trkpt lat="47.87761" lon="6.90073">
        <ele>905</ele>
        <time>2018-02-23T21:53:04Z</time>
      </trkpt>
      <trkpt lat="47.8765" lon="6.90023">
        <ele>910</ele>
        <time>2018-02-23T21:54:04Z</time>
      </trkpt>
      <trkpt lat="47.87557" lon="6.90006">
        <ele>924</ele>
        <time>2018-02-23T21:55:04Z</time>
      </trkpt>
      <trkpt lat="47.87456" lon="6.89946">
        <ele>936</ele>
        <time>2018-02-23T21:56:04Z</time>
      </trkpt>
      <trkpt lat="47.87368" lon="6.89895">
        <ele>965</ele>
        <time>2018-02-23T21:57:04Z</time>
      </trkpt>
      <trkpt lat="47.87384" lon="6.8983">
        <ele>976</ele>
        <time>2018-02-23T21:58:04Z</time>
      </trkpt>
      <trkpt lat="47.87439" lon="6.89712">
        <ele>985</ele>
        <time>2018-02-23T21:59:04Z</time>
      </trkpt>
      <trkpt lat="47.8739" lon="6.89723">
        <ele>1008</ele>
        <time>2018-02-23T22:00:04Z</time>
      </trkpt>
      <trkpt lat="47.8739" lon="6.89673">
        <ele>1016</ele>
        <time>2018-02-23T22:01:04Z</time>
      </trkpt>
      <trkpt lat="47.87362" lon="6.89631">
        <ele>1026</ele>
        <time>2018-02-23T22:02:04Z</time>
      </trkpt>
      <trkpt lat="47.87338" lon="6.89714">
        <ele>1035</ele>
        <time>2018-02-23T22:03:04Z</time>
      </trkpt>
      <trkpt lat="47.87201" lon="6.895">
        <ele>1081</ele>
        <time>2018-02-23T22:04:04Z</time>
      </trkpt>
      <trkpt lat="47.87093" lon="6.89427">
        <ele>1115</ele>
        <time>2018-02-23T22:05:04Z</time>
      </trkpt>
      <trkpt lat="47.87046" lon="6.89262">
        <ele>1109</ele>
        <time>2018-02-23T22:06:04Z</time>
      </trkpt>
      <trkpt lat="47.86995" lon="6.8918">
        <ele>1106</ele>
        <time>2018-02-23T22:07:04Z</time>
      </trkpt>
      <trkpt lat="47.86929" lon="6.89339">
        <ele>1111</ele>
        <time>2018-02-23T22:08:04Z</time>
      </trkpt>
      <trkpt lat="47.86824" lon="6.89485">
        <ele>1106</ele>
        <time>2018-02-23T22:09:04Z</time>
      </trkpt>
      <trkpt lat="47.86739" lon="6.89637">
        <ele>1101</ele>
        <time>2018-02-23T22:10:04Z</time>
      </trkpt>
      <trkpt lat="47.86774" lon="6.8992">
        <ele>1100</ele>
        <time>2018-02-23T22:11:04Z</time>
      </trkpt>
      <trkpt lat="47.86761" lon="6.90025">
        <ele>1095</ele>
        <time>2018-02-23T22:12:04Z</time>
      </trkpt>
      <trkpt lat="47.86683" lon="6.90165">
        <ele>1086</ele>
        <time>2018-02-23T22:13:04Z</time>
      </trkpt>
      <trkpt lat="47.8665" lon="6.90334">
        <ele>1089</ele>
        <time>2018-02-23T22:14:04Z</time>
      </trkpt>
      <trkpt lat="47.86581" lon="6.90416">
        <ele>1078</ele>
        <time>2018-02-23T22:15:04Z</time>
      </trkpt>
      <trkpt lat="47.86486" lon="6.90465">
        <ele>1068</ele>
        <time>2018-02-23T22:16:04Z</time>
      </trkpt>
      <trkpt lat="47.86414" lon="6.90551">
        <ele>1066</ele>
        <time>2018-02-23T22:17:04Z</time>
      </trkpt>
      <trkpt lat="47.86366" lon="6.90703">
        <ele>1053</ele>
        <time>2018-02-23T22:18:04Z</time>
      </trkpt>
      <trkpt lat="47.86343" lon="6.90817">
        <ele>1044</ele>
        <time>2018-02-23T22:19:04Z</time>
      </trkpt>
      <trkpt lat="47.86345" lon="6.90985">
        <ele>1044</ele>
        <time>2018-02-23T22:20:04Z</time>
      </trkpt>
      <trkpt lat="47.86316" lon="6.91053">
        <ele>1056</ele>
        <time>2018-02-23T22:21:04Z</time>
      </trkpt>
      <trkpt lat="47.86263" lon="6.91047">
        <ele>1062</ele>
        <time>2018-02-23T22:22:04Z</time>
      </trkpt>
      <trkpt lat="47.86202" lon="6.91002">
        <ele>1065</ele>
        <time>2018-02-23T22:23:04Z</time>
      </trkpt>
      <trkpt lat="47.86077" lon="6.90989">
        <ele>1092</ele>
        <time>2018-02-23T22:24:04Z</time>
      </trkpt>
      <trkpt lat="47.85932" lon="6.90959">
        <ele>1112</ele>
        <time>2018-02-23T22:25:04Z</time>
      </trkpt>
      <trkpt lat="47.85864" lon="6.91021">
        <ele>1116</ele>
        <time>2018-02-23T22:26:04Z</time>
      </trkpt>
      <trkpt lat="47.85783" lon="6.91163">
        <ele>1117</ele>
        <time>2018-02-23T22:27:04Z</time>
      </trkpt>
      <trkpt lat="47.8571" lon="6.91341">
        <ele>1103</ele>
        <time>2018-02-23T22:28:04Z</time>
      </trkpt>
      <trkpt lat="47.85631" lon="6.91523">
        <ele>1093</ele>
        <time>2018-02-23T22:29:04Z</time>
      </trkpt>
      <trkpt lat="47.85577" lon="6.91721">
        <ele>1090</ele>
        <time>2018-02-23T22:30:04Z</time>
      </trkpt>
      <trkpt lat="47.85487" lon="6.91731">
        <ele>1088</ele>
        <time>2018-02-23T22:31:04Z</time>
      </trkpt>
      <trkpt lat="47.85503" lon="6.91871">
        <ele>1086</ele>
        <time>2018-02-23T22:32:04Z</time>
      </trkpt>
      <trkpt lat="47.85482" lon="6.91952">
        <ele>1071</ele>
        <time>2018-02-23T22:33:04Z</time>
      </trkpt>
      <trkpt lat="47.85514" lon="6.91961">
        <ele>1059</ele>
        <time>2018-02-23T22:34:04Z</time>
      </trkpt>
      <trkpt lat="47.85454" lon="6.92004">
        <ele>1061</ele>
        <time>2018-02-23T22:35:04Z</time>
      </trkpt>
      <trkpt lat="47.85494" lon="6.92019">
        <ele>1034</ele>
        <time>2018-02-23T22:36:04Z</time>
      </trkpt>
      <trkpt lat="47.85504" lon="6.92068">
        <ele>1007</ele>
        <time>2018-02-23T22:37:04Z</time>
      </trkpt>
      <trkpt lat="47.85469" lon="6.92094">
        <ele>1015</ele>
        <time>2018-02-23T22:38:04Z</time>
      </trkpt>
      <trkpt lat="47.85497" lon="6.92113">
        <ele>992</ele>
        <time>2018-02-23T22:39:04Z</time>
      </trkpt>
      <trkpt lat="47.85462" lon="6.92137">
        <ele>1005</ele>
        <time>2018-02-23T22:40:04Z</time>
      </trkpt>
      <trkpt lat="47.85495" lon="6.92163">
        <ele>976</ele>
        <time>2018-02-23T22:41:04Z</time>
      </trkpt>
      <trkpt lat="47.85452" lon="6.92212">
        <ele>989</ele>
        <time>2018-02-23T22:42:04Z</time>
      </trkpt>
      <trkpt lat="47.85484" lon="6.92261">
        <ele>957</ele>
        <time>2018-02-23T22:43:04Z</time>
      </trkpt>
      <trkpt lat="47.85485" lon="6.92354">
        <ele>928</ele>
        <time>2018-02-23T22:44:04Z</time>
      </trkpt>
      <trkpt lat="47.85325" lon="6.92506">
        <ele>936</ele>
        <time>2018-02-23T22:45:04Z</time>
      </trkpt>
      <trkpt lat="47.85154" lon="6.92605">
        <ele>984</ele>
        <time>2018-02-23T22:46:04Z</time>
      </trkpt>
      <trkpt lat="47.85056" lon="6.9263">
        <ele>1013</ele>
        <time>2018-02-23T22:47:04Z</time>
      </trkpt>
      <trkpt lat="47.84945" lon="6.92587">
        <ele>1055</ele>
        <time>2018-02-23T22:48:04Z</time>
      </trkpt>
      <trkpt lat="47.84868" lon="6.92491">
        <ele>1072</ele>
        <time>2018-02-23T22:49:04Z</time>
      </trkpt>
      <trkpt lat="47.84833" lon="6.92527">
        <ele>1078</ele>
        <time>2018-02-23T22:50:04Z</time>
      </trkpt>
      <trkpt lat="47.8486" lon="6.92587">
        <ele>1084</ele>
        <time>2018-02-23T22:51:04Z</time>
      </trkpt>
      <trkpt lat="47.84859" lon="6.92793">
        <ele>1105</ele>
        <time>2018-02-23T22:52:04Z</time>
      </trkpt>
      <trkpt lat="47.84836" lon="6.93002">
        <ele>1137</ele>
        <time>2018-02-23T22:53:04Z</time>
      </trkpt>
      <trkpt lat="47.84857" lon="6.93216">
        <ele>1171</ele>
        <time>2018-02-23T22:54:04Z</time>
      </trkpt>
      <trkpt lat="47.84929" lon="6.93435">
        <ele>1175</ele>
        <time>2018-02-23T22:55:04Z</time>
      </trkpt>
      <trkpt lat="47.85058" lon="6.93712">
        <ele>1177</ele>
        <time>2018-02-23T22:56:04Z</time>
      </trkpt>
      <trkpt lat="47.85148" lon="6.93873">
        <ele>1174</ele>
        <time>2018-02-23T22:57:04Z</time>
      </trkpt>
      <trkpt lat="47.85167" lon="6.94012">
        <ele>1171</ele>
        <time>2018-02-23T22:58:04Z</time>
      </trkpt>
      <trkpt lat="47.85094" lon="6.94135">
        <ele>1159</ele>
        <time>2018-02-23T22:59:04Z</time>
      </trkpt>
      <trkpt lat="47.84993" lon="6.94169">
        <ele>1151</ele>
        <time>2018-02-23T23:00:04Z</time>
      </trkpt>
      <trkpt lat="47.84891" lon="6.94265">
        <ele>1126</ele>
        <time>2018-02-23T23:01:04Z</time>
      </trkpt>
      <trkpt lat="47.84824" lon="6.94386">
        <ele>1125</ele>
        <time>2018-02-23T23:02:04Z</time>
      </trkpt>
      <trkpt lat="47.84774" lon="6.94521">
        <ele>1094</ele>
        <time>2018-02-23T23:03:04Z</time>
      </trkpt>
      <trkpt lat="47.84758" lon="6.94643">
        <ele>1067</ele>
        <time>2018-02-23T23:04:04Z</time>
      </trkpt>
      <trkpt lat="47.84744" lon="6.94793">
        <ele>1047</ele>
        <time>2018-02-23T23:05:04Z</time>
      </trkpt>
      <trkpt lat="47.84758" lon="6.94989">
        <ele>1049</ele>
        <time>2018-02-23T23:06:04Z</time>
      </trkpt>
      <trkpt lat="47.84703" lon="6.95214">
        <ele>1041</ele>
        <time>2018-02-23T23:07:04Z</time>
      </trkpt>
      <trkpt lat="47.84698" lon="6.95469">
        <ele>1044</ele>
        <time>2018-02-23T23:08:04Z</time>
      </trkpt>
      <trkpt lat="47.84712" lon="6.95652">
        <ele>1052</ele>
        <time>2018-02-23T23:09:04Z</time>
      </trkpt>
      <trkpt lat="47.84749" lon="6.9586">
        <ele>1052</ele>
        <time>2018-02-23T23:10:04Z</time>
      </trkpt>
      <trkpt lat="47.84679" lon="6.95976">
        <ele>1048</ele>
        <time>2018-02-23T23:11:04Z</time>
      </trkpt>
      <trkpt lat="47.84552" lon="6.96072">
        <ele>1043</ele>
        <time>2018-02-23T23:12:04Z</time>
      </trkpt>
      <trkpt lat="47.84477" lon="6.96139">
        <ele>1033</ele>
        <time>2018-02-23T23:13:04Z</time>
      </trkpt>
      <trkpt lat="47.84414" lon="6.96285">
        <ele>1018</ele>
        <time>2018-02-23T23:14:04Z</time>
      </trkpt>
      <trkpt lat="47.84359" lon="6.96469">
        <ele>998</ele>
        <time>2018-02-23T23:15:04Z</time>
      </trkpt>
      <trkpt lat="47.84303" lon="6.96542">
        <ele>989</ele>
        <time>2018-02-23T23:16:04Z</time>
      </trkpt>
      <trkpt lat="47.84201" lon="6.96621">
        <ele>985</ele>
        <time>2018-02-23T23:17:04Z</time>
      </trkpt>
      <trkpt lat="47.84137" lon="6.96834">
        <ele>986</ele>
        <time>2018-02-23T23:18:04Z</time>
      </trkpt>
      <trkpt lat="47.84116" lon="6.97074">
        <ele>962</ele>
        <time>2018-02-23T23:19:04Z</time>
      </trkpt>
      <trkpt lat="47.8411" lon="6.97267">
        <ele>963</ele>
        <time>2018-02-23T23:20:04Z</time>
      </trkpt>
      <trkpt lat="47.8413" lon="6.97385">
        <ele>962</ele>
        <time>2018-02-23T23:21:04Z</time>
      </trkpt>
      <trkpt lat="47.84178" lon="6.97514">
        <ele>950</ele>
        <time>2018-02-23T23:22:04Z</time>
      </trkpt>
      <trkpt lat="47.84201" lon="6.97632">
        <ele>938</ele>
        <time>2018-02-23T23:23:04Z</time>
      </trkpt>
      <trkpt lat="47.84183" lon="6.9778">
        <ele>930</ele>
        <time>2018-02-23T23:24:04Z</time>
      </trkpt>
      <trkpt lat="47.84153" lon="6.97956">
        <ele>955</ele>
        <time>2018-02-23T23:25:04Z</time>
      </trkpt>
      <trkpt lat="47.84101" lon="6.98111">
        <ele>971</ele>
        <time>2018-02-23T23:26:04Z</time>
      </trkpt>
      <trkpt lat="47.84111" lon="6.98327">
        <ele>972</ele>
        <time>2018-02-23T23:27:04Z</time>
      </trkpt>
      <trkpt lat="47.84165" lon="6.98486">
        <ele>980</ele>
        <time>2018-02-23T23:28:04Z</time>
      </trkpt>
      <trkpt lat="47.84137" lon="6.98615">
        <ele>977</ele>
        <time>2018-02-23T23:29:04Z</time>
      </trkpt>
      <trkpt lat="47.84094" lon="6.98729">
        <ele>977</ele>
        <time>2018-02-23T23:30:04Z</time>
      </trkpt>
      <trkpt lat="47.84047" lon="6.98853">
        <ele>979</ele>
        <time>2018-02-23T23:31:04Z</time>
      </trkpt>
      <trkpt lat="47.84024" lon="6.98879">
        <ele>978</ele>
        <time>2018-02-23T23:32:04Z</time>
      </trkpt>
      <trkpt lat="47.84038" lon="6.98922">
        <ele>982</ele>
        <time>2018-02-23T23:33:04Z</time>
      </trkpt>
      <trkpt lat="47.83859" lon="6.99066">
        <ele>973</ele>
        <time>2018-02-23T23:34:04Z</time>
      </trkpt>
      <trkpt lat="47.8378" lon="6.99074">
        <ele>978</ele>
        <time>2018-02-23T23:35:04Z</time>
      </trkpt>
      <trkpt lat="47.83715" lon="6.99096">
        <ele>983</ele>
        <time>2018-02-23T23:36:04Z</time>
      </trkpt>
      <trkpt lat="47.83619" lon="6.99164">
        <ele>1000</ele>
        <time>2018-02-23T23:37:04Z</time>
      </trkpt>
      <trkpt lat="47.83548" lon="6.99222">
        <ele>1014</ele>
        <time>2018-02-23T23:38:04Z</time>
      </trkpt>
      <trkpt lat="47.83475" lon="6.99366">
        <ele>1028</ele>
        <time>2018-02-23T23:39:04Z</time>
      </trkpt>
      <trkpt lat="47.83426" lon="6.99422">
        <ele>1037</ele>
        <time>2018-02-23T23:40:04Z</time>
      </trkpt>
      <trkpt lat="47.8335" lon="6.9945">
        <ele>1047</ele>
        <time>2018-02-23T23:41:04Z</time>
      </trkpt>
      <trkpt lat="47.83288" lon="6.9951">
        <ele>1048</ele>
        <time>2018-02-23T23:42:04Z</time>
      </trkpt>
      <trkpt lat="47.83167" lon="6.99692">
        <ele>1059</ele>
        <time>2018-02-23T23:43:04Z</time>
      </trkpt>
      <trkpt lat="47.83188" lon="6.99802">
        <ele>1068</ele>
        <time>2018-02-23T23:44:04Z</time>
      </trkpt>
      <trkpt lat="47.83139" lon="6.99902">
        <ele>1086</ele>
        <time>2018-02-23T23:45:04Z</time>
      </trkpt>
      <trkpt lat="47.83096" lon="7.00048">
        <ele>1115</ele>
        <time>2018-02-23T23:46:04Z</time>
      </trkpt>
      <trkpt lat="47.83057" lon="7.00128">
        <ele>1136</ele>
        <time>2018-02-23T23:47:04Z</time>
      </trkpt>
      <trkpt lat="47.8301" lon="7.00156">
        <ele>1145</ele>
        <time>2018-02-23T23:48:04Z</time>
      </trkpt>
      <trkpt lat="47.82914" lon="7.00475">
        <ele>1166</ele>
        <time>2018-02-23T23:49:04Z</time>
      </trkpt>
      <trkpt lat="47.82806" lon="7.00544">
        <ele>1164</ele>
        <time>2018-02-23T23:50:04Z</time>
      </trkpt>
      <trkpt lat="47.8268" lon="7.00638">
        <ele>1157</ele>
        <time>2018-02-23T23:51:04Z</time>
      </trkpt>
      <trkpt lat="47.82531" lon="7.00814">
        <ele>1147</ele>
        <time>2018-02-23T23:52:04Z</time>
      </trkpt>
      <trkpt lat="47.824" lon="7.00973">
        <ele>1140</ele>
        <time>2018-02-23T23:53:04Z</time>
      </trkpt>
      <trkpt lat="47.82327" lon="7.01186">
        <ele>1133</ele>
        <time>2018-02-23T23:54:04Z</time>
      </trkpt>
      <trkpt lat="47.82249" lon="7.01452">
        <ele>1112</ele>
        <time>2018-02-23T23:55:04Z</time>
      </trkpt>
      <trkpt lat="47.8224" lon="7.01653">
        <ele>1103</ele>
        <time>2018-02-23T23:56:04Z</time>
      </trkpt>
      <trkpt lat="47.82281" lon="7.01988">
        <ele>1097</ele>
        <time>2018-02-23T23:57:04Z</time>
      </trkpt>
      <trkpt lat="47.82211" lon="7.02091">
        <ele>1092</ele>
        <time>2018-02-23T23:58:04Z</time>
      </trkpt>
      <trkpt lat="47.82138" lon="7.02241">
        <ele>1080</ele>
        <time>2018-02-23T23:59:04Z</time>
      </trkpt>
      <trkpt lat="47.8206" lon="7.02368">
        <ele>1077</ele>
        <time>2018-02-24T00:00:04Z</time>
      </trkpt>
      <trkpt lat="47.81969" lon="7.02454">
        <ele>1074</ele>
        <time>2018-02-24T00:01:04Z</time>
      </trkpt>
      <trkpt lat="47.81818" lon="7.02452">
        <ele>1060</ele>
        <time>2018-02-24T00:02:04Z</time>
      </trkpt>
      <trkpt lat="47.81745" lon="7.02458">
        <ele>1049</ele>
        <time>2018-02-24T00:03:04Z</time>
      </trkpt>
      <trkpt lat="47.81639" lon="7.02473">
        <ele>1027</ele>
        <time>2018-02-24T00:04:04Z</time>
      </trkpt>
      <trkpt lat="47.81586" lon="7.02514">
        <ele>1017</ele>
        <time>2018-02-24T00:05:04Z</time>
      </trkpt>
      <trkpt lat="47.81563" lon="7.02574">
        <ele>1015</ele>
        <time>2018-02-24T00:06:04Z</time>
      </trkpt>
      <trkpt lat="47.81556" lon="7.02715">
        <ele>1001</ele>
        <time>2018-02-24T00:07:04Z</time>
      </trkpt>
      <trkpt lat="47.81599" lon="7.02814">
        <ele>988</ele>
        <time>2018-02-24T00:08:04Z</time>
      </trkpt>
      <trkpt lat="47.81628" lon="7.02939">
        <ele>965</ele>
        <time>2018-02-24T00:09:04Z</time>
      </trkpt>
      <trkpt lat="47.81583" lon="7.03078">
        <ele>930</ele>
        <time>2018-02-24T00:10:04Z</time>
      </trkpt>
      <trkpt lat="47.81514" lon="7.03203">
        <ele>915</ele>
        <time>2018-02-24T00:11:04Z</time>
      </trkpt>
      <trkpt lat="47.81364" lon="7.03228">
        <ele>886</ele>
        <time>2018-02-24T00:12:04Z</time>
      </trkpt>
      <trkpt lat="47.81226" lon="7.03248">
        <ele>871</ele>
        <time>2018-02-24T00:13:04Z</time>
      </trkpt>
      <trkpt lat="47.8118" lon="7.03291">
        <ele>865</ele>
        <time>2018-02-24T00:14:04Z</time>
      </trkpt>
      <trkpt lat="47.81167" lon="7.03413">
        <ele>864</ele>
        <time>2018-02-24T00:15:04Z</time>
      </trkpt>
      <trkpt lat="47.81134" lon="7.03531">
        <ele>851</ele>
        <time>2018-02-24T00:16:04Z</time>
      </trkpt>
      <trkpt lat="47.81077" lon="7.03621">
        <ele>847</ele>
        <time>2018-02-24T00:17:04Z</time>
      </trkpt>
      <trkpt lat="47.81037" lon="7.03718">
        <ele>835</ele>
        <time>2018-02-24T00:18:04Z</time>
      </trkpt>
      <trkpt lat="47.80949" lon="7.03769">
        <ele>826</ele>
        <time>2018-02-24T00:19:04Z</time>
      </trkpt>
      <trkpt lat="47.80867" lon="7.03855">
        <ele>815</ele>
        <time>2018-02-24T00:20:04Z</time>
      </trkpt>
      <trkpt lat="47.80821" lon="7.03969">
        <ele>813</ele>
        <time>2018-02-24T00:21:04Z</time>
      </trkpt>
      <trkpt lat="47.80778" lon="7.04067">
        <ele>797</ele>
        <time>2018-02-24T00:22:04Z</time>
      </trkpt>
      <trkpt lat="47.80727" lon="7.04142">
        <ele>778</ele>
        <time>2018-02-24T00:23:04Z</time>
      </trkpt>
      <trkpt lat="47.80661" lon="7.04248">
        <ele>751</ele>
        <time>2018-02-24T00:24:04Z</time>
      </trkpt>
      <trkpt lat="47.80674" lon="7.04297">
        <ele>751</ele>
        <time>2018-02-24T00:25:04Z</time>
      </trkpt>
      <trkpt lat="47.80716" lon="7.04436">
        <ele>758</ele>
        <time>2018-02-24T00:26:04Z</time>
      </trkpt>
      <trkpt lat="47.80759" lon="7.04561">
        <ele>762</ele>
        <time>2018-02-24T00:27:04Z</time>
      </trkpt>
      <trkpt lat="47.80831" lon="7.04606">
        <ele>744</ele>
        <time>2018-02-24T00:28:04Z</time>
      </trkpt>
      <trkpt lat="47.80892" lon="7.04677">
        <ele>744</ele>
        <time>2018-02-24T00:29:04Z</time>
      </trkpt>
      <trkpt lat="47.80919" lon="7.04775">
        <ele>753</ele>
        <time>2018-02-24T00:30:04Z</time>
      </trkpt>
      <trkpt lat="47.80929" lon="7.0484">
        <ele>762</ele>
        <time>2018-02-24T00:31:04Z</time>
      </trkpt>
      <trkpt lat="47.81086" lon="7.04934">
        <ele>736</ele>
        <time>2018-02-24T00:32:04Z</time>
      </trkpt>
      <trkpt lat="47.81171" lon="7.05035">
        <ele>720</ele>
        <time>2018-02-24T00:33:04Z</time>
      </trkpt>
      <trkpt lat="47.81262" lon="7.05232">
        <ele>718</ele>
        <time>2018-02-24T00:34:04Z</time>
      </trkpt>
      <trkpt lat="47.81325" lon="7.05402">
        <ele>696</ele>
        <time>2018-02-24T00:35:04Z</time>
      </trkpt>
      <trkpt lat="47.814" lon="7.05505">
        <ele>675</ele>
        <time>2018-02-24T00:36:04Z</time>
      </trkpt>
      <trkpt lat="47.8139" lon="7.05597">
        <ele>676</ele>
        <time>2018-02-24T00:37:04Z</time>
      </trkpt>
      <trkpt lat="47.8133" lon="7.05788">
        <ele>654</ele>
        <time>2018-02-24T00:38:04Z</time>
      </trkpt>
      <trkpt lat="47.81415" lon="7.05803">
        <ele>634</ele>
        <time>2018-02-24T00:39:04Z</time>
      </trkpt>
      <trkpt lat="47.81436" lon="7.05857">
        <ele>625</ele>
        <time>2018-02-24T00:40:04Z</time>
      </trkpt>
      <trkpt lat="47.81487" lon="7.0614">
        <ele>619</ele>
        <time>2018-02-24T00:41:04Z</time>
      </trkpt>
      <trkpt lat="47.81554" lon="7.06391">
        <ele>618</ele>
        <time>2018-02-24T00:42:04Z</time>
      </trkpt>
      <trkpt lat="47.81576" lon="7.06511">
        <ele>621</ele>
        <time>2018-02-24T00:43:04Z</time>
      </trkpt>
      <trkpt lat="47.81553" lon="7.06634">
        <ele>618</ele>
        <time>2018-02-24T00:44:04Z</time>
      </trkpt>
      <trkpt lat="47.81452" lon="7.06709">
        <ele>614</ele>
        <time>2018-02-24T00:45:04Z</time>
      </trkpt>
      <trkpt lat="47.81363" lon="7.0673">
        <ele>600</ele>
        <time>2018-02-24T00:46:04Z</time>
      </trkpt>
      <trkpt lat="47.81305" lon="7.06795">
        <ele>596</ele>
        <time>2018-02-24T00:47:04Z</time>
      </trkpt>
      <trkpt lat="47.81268" lon="7.06874">
        <ele>592</ele>
        <time>2018-02-24T00:48:04Z</time>
      </trkpt>
      <trkpt lat="47.81272" lon="7.06934">
        <ele>601</ele>
        <time>2018-02-24T00:49:04Z</time>
      </trkpt>
      <trkpt lat="47.81206" lon="7.07009">
        <ele>590</ele>
        <time>2018-02-24T00:50:04Z</time>
      </trkpt>
      <trkpt lat="47.81138" lon="7.07043">
        <ele>575</ele>
        <time>2018-02-24T00:51:04Z</time>
      </trkpt>
      <trkpt lat="47.81116" lon="7.07151">
        <ele>576</ele>
        <time>2018-02-24T00:52:04Z</time>
      </trkpt>
      <trkpt lat="47.81128" lon="7.07331">
        <ele>574</ele>
        <time>2018-02-24T00:53:04Z</time>
      </trkpt>
      <trkpt lat="47.81183" lon="7.07511">
        <ele>562</ele>
        <time>2018-02-24T00:54:04Z</time>
      </trkpt>
      <trkpt lat="47.81171" lon="7.07561">
        <ele>559</ele>
        <time>2018-02-24T00:55:04Z</time>
      </trkpt>
      <trkpt lat="47.81053" lon="7.07565">
        <ele>553</ele>
        <time>2018-02-24T00:56:04Z</time>
      </trkpt>
      <trkpt lat="47.80941" lon="7.07548">
        <ele>541</ele>
        <time>2018-02-24T00:57:04Z</time>
      </trkpt>
      <trkpt lat="47.80928" lon="7.07604">
        <ele>546</ele>
        <time>2018-02-24T00:58:04Z</time>
      </trkpt>
      <trkpt lat="47.80992" lon="7.07822">
        <ele>550</ele>
        <time>2018-02-24T00:59:04Z</time>
      </trkpt>
      <trkpt lat="47.81016" lon="7.07979">
        <ele>541</ele>
        <time>2018-02-24T01:00:04Z</time>
      </trkpt>
      <trkpt lat="47.8099" lon="7.08297">
        <ele>524</ele>
        <time>2018-02-24T01:01:04Z</time>
      </trkpt>
      <trkpt lat="47.80994" lon="7.08367">
        <ele>521</ele>
        <time>2018-02-24T01:02:04Z</time>
      </trkpt>
      <trkpt lat="47.81085" lon="7.08389">
        <ele>533</ele>
        <time>2018-02-24T01:03:04Z</time>
      </trkpt>
      <trkpt lat="47.81124" lon="7.08496">
        <ele>505</ele>
        <time>2018-02-24T01:04:04Z</time>
      </trkpt>
      <trkpt lat="47.81086" lon="7.08676">
        <ele>480</ele>
        <time>2018-02-24T01:05:04Z</time>
      </trkpt>
      <trkpt lat="47.8104" lon="7.08863">
        <ele>477</ele>
        <time>2018-02-24T01:06:04Z</time>
      </trkpt>
      <trkpt lat="47.80981" lon="7.08953">
        <ele>475</ele>
        <time>2018-02-24T01:07:04Z</time>
      </trkpt>
      <trkpt lat="47.80948" lon="7.08921">
        <ele>471</ele>
        <time>2018-02-24T01:08:04Z</time>
      </trkpt>
      <trkpt lat="47.80896" lon="7.08947">
        <ele>462</ele>
        <time>2018-02-24T01:09:04Z</time>
      </trkpt>
      <trkpt lat="47.80824" lon="7.09037">
        <ele>447</ele>
        <time>2018-02-24T01:10:04Z</time>
      </trkpt>
      <trkpt lat="47.80759" lon="7.09155">
        <ele>433</ele>
        <time>2018-02-24T01:11:04Z</time>
      </trkpt>
      <trkpt lat="47.80714" lon="7.09309">
        <ele>427</ele>
        <time>2018-02-24T01:12:04Z</time>
      </trkpt>
      <trkpt lat="47.80704" lon="7.09524">
        <ele>428</ele>
        <time>2018-02-24T01:13:04Z</time>
      </trkpt>
      <trkpt lat="47.80685" lon="7.09642">
        <ele>403</ele>
        <time>2018-02-24T01:14:04Z</time>
      </trkpt>
      <trkpt lat="47.80707" lon="7.09771">
        <ele>390</ele>
        <time>2018-02-24T01:15:04Z</time>
      </trkpt>
      <trkpt lat="47.80759" lon="7.09891">
        <ele>379</ele>
        <time>2018-02-24T01:16:04Z</time>
      </trkpt>
      <trkpt lat="47.80869" lon="7.0996">
        <ele>371</ele>
        <time>2018-02-24T01:17:04Z</time>
      </trkpt>
      <trkpt lat="47.80964" lon="7.10056">
        <ele>352</ele>
        <time>2018-02-24T01:18:04Z</time>
      </trkpt>
      <trkpt lat="47.80982" lon="7.10093">
        <ele>345</ele>
        <time>2018-02-24T01:19:04Z</time>
      </trkpt>
      <trkpt lat="47.80948" lon="7.10189">
        <ele>342</ele>
        <time>2018-02-24T01:20:04Z</time>
      </trkpt>
      <trkpt lat="47.80977" lon="7.10211">
        <ele>340</ele>
        <time>2018-02-24T01:21:04Z</time>
      </trkpt>
      <trkpt lat="47.81056" lon="7.1029">
        <ele>337</ele>
        <time>2018-02-24T01:22:04Z</time>
      </trkpt>
      <trkpt lat="47.81138" lon="7.10374">
        <ele>336</ele>
        <time>2018-02-24T01:23:04Z</time>
      </trkpt>
      <trkpt lat="47.81167" lon="7.1046">
        <ele>334</ele>
        <time>2018-02-24T01:24:04Z</time>
      </trkpt>
      <trkpt lat="47.81223" lon="7.10472">
        <ele>336</ele>
        <time>2018-02-24T01:25:04Z</time>
      </trkpt>
      <trkpt lat="47.81266" lon="7.10502">
        <ele>338</ele>
        <time>2018-02-24T01:26:04Z</time>
      </trkpt>
      <trkpt lat="47.8135" lon="7.10429">
        <ele>343</ele>
        <time>2018-02-24T01:27:04Z</time>
      </trkpt>
      <trkpt lat="47.81448" lon="7.105">
        <ele>350</ele>
        <time>2018-02-24T01:28:04Z</time>
      </trkpt>
      <trkpt lat="47.81534" lon="7.10545">
        <ele>358</ele>
        <time>2018-02-24T01:29:04Z</time>
      </trkpt>
      <trkpt lat="47.81696" lon="7.10781">
        <ele>373</ele>
        <time>2018-02-24T01:30:04Z</time>
      </trkpt>
      <trkpt lat="47.81753" lon="7.1079">
        <ele>376</ele>
        <time>2018-02-24T01:31:04Z</time>
      </trkpt>
      <trkpt lat="47.81919" lon="7.10887">
        <ele>400</ele>
        <time>2018-02-24T01:32:04Z</time>
      </trkpt>
      <trkpt lat="47.82034" lon="7.10876">
        <ele>433</ele>
        <time>2018-02-24T01:33:04Z</time>
      </trkpt>
      <trkpt lat="47.82148" lon="7.10878">
        <ele>453</ele>
        <time>2018-02-24T01:34:04Z</time>
      </trkpt>
      <trkpt lat="47.82242" lon="7.10777">
        <ele>491</ele>
        <time>2018-02-24T01:35:04Z</time>
      </trkpt>
      <trkpt lat="47.82322" lon="7.10745">
        <ele>500</ele>
        <time>2018-02-24T01:36:04Z</time>
      </trkpt>
      <trkpt lat="47.82371" lon="7.10666">
        <ele>534</ele>
        <time>2018-02-24T01:37:04Z</time>
      </trkpt>
      <trkpt lat="47.82461" lon="7.10552">
        <ele>562</ele>
        <time>2018-02-24T01:38:04Z</time>
      </trkpt>
      <trkpt lat="47.8252" lon="7.10494">
        <ele>567</ele>
        <time>2018-02-24T01:39:04Z</time>
      </trkpt>
      <trkpt lat="47.82589" lon="7.10419">
        <ele>577</ele>
        <time>2018-02-24T01:40:04Z</time>
      </trkpt>
      <trkpt lat="47.82613" lon="7.10376">
        <ele>583</ele>
        <time>2018-02-24T01:41:04Z</time>
      </trkpt>
      <trkpt lat="47.82706" lon="7.10279">
        <ele>606</ele>
        <time>2018-02-24T01:42:04Z</time>
      </trkpt>
      <trkpt lat="47.82799" lon="7.10206">
        <ele>633</ele>
        <time>2018-02-24T01:43:04Z</time>
      </trkpt>
      <trkpt lat="47.82929" lon="7.10155">
        <ele>654</ele>
        <time>2018-02-24T01:44:04Z</time>
      </trkpt>
      <trkpt lat="47.83102" lon="7.10048">
        <ele>671</ele>
        <time>2018-02-24T01:45:04Z</time>
      </trkpt>
      <trkpt lat="47.83213" lon="7.1014">
        <ele>699</ele>
        <time>2018-02-24T01:46:04Z</time>
      </trkpt>
      <trkpt lat="47.83302" lon="7.10166">
        <ele>716</ele>
        <time>2018-02-24T01:47:04Z</time>
      </trkpt>
      <trkpt lat="47.8343" lon="7.10148">
        <ele>747</ele>
        <time>2018-02-24T01:48:04Z</time>
      </trkpt>
      <trkpt lat="47.83482" lon="7.10161">
        <ele>754</ele>
        <time>2018-02-24T01:49:04Z</time>
      </trkpt>
      <trkpt lat="47.83534" lon="7.10273">
        <ele>768</ele>
        <time>2018-02-24T01:50:04Z</time>
      </trkpt>
      <trkpt lat="47.83574" lon="7.10354">
        <ele>762</ele>
        <time>2018-02-24T01:51:04Z</time>
      </trkpt>
      <trkpt lat="47.8363" lon="7.10382">
        <ele>755</ele>
        <time>2018-02-24T01:52:04Z</time>
      </trkpt>
      <trkpt lat="47.83733" lon="7.10468">
        <ele>752</ele>
        <time>2018-02-24T01:53:04Z</time>
      </trkpt>
      <trkpt lat="47.83753" lon="7.10595">
        <ele>763</ele>
        <time>2018-02-24T01:54:04Z</time>
      </trkpt>
      <trkpt lat="47.83763" lon="7.10738">
        <ele>772</ele>
        <time>2018-02-24T01:55:04Z</time>
      </trkpt>
      <trkpt lat="47.83763" lon="7.10846">
        <ele>783</ele>
        <time>2018-02-24T01:56:04Z</time>
      </trkpt>
      <trkpt lat="47.83829" lon="7.10914">
        <ele>797</ele>
        <time>2018-02-24T01:57:04Z</time>
      </trkpt>
      <trkpt lat="47.83908" lon="7.11043">
        <ele>826</ele>
        <time>2018-02-24T01:58:04Z</time>
      </trkpt>
      <trkpt lat="47.83967" lon="7.11213">
        <ele>842</ele>
        <time>2018-02-24T01:59:04Z</time>
      </trkpt>
      <trkpt lat="47.8399" lon="7.11271">
        <ele>844</ele>
        <time>2018-02-24T02:00:04Z</time>
      </trkpt>
      <trkpt lat="47.84074" lon="7.11421">
        <ele>853</ele>
        <time>2018-02-24T02:01:04Z</time>
      </trkpt>
      <trkpt lat="47.84111" lon="7.11455">
        <ele>854</ele>
        <time>2018-02-24T02:02:04Z</time>
      </trkpt>
      <trkpt lat="47.84215" lon="7.11513">
        <ele>876</ele>
        <time>2018-02-24T02:03:04Z</time>
      </trkpt>
      <trkpt lat="47.84327" lon="7.11633">
        <ele>883</ele>
        <time>2018-02-24T02:04:04Z</time>
      </trkpt>
      <trkpt lat="47.84453" lon="7.11657">
        <ele>892</ele>
        <time>2018-02-24T02:05:04Z</time>
      </trkpt>
      <trkpt lat="47.84544" lon="7.11668">
        <ele>886</ele>
        <time>2018-02-24T02:06:04Z</time>
      </trkpt>
      <trkpt lat="47.84819" lon="7.11811">
        <ele>907</ele>
        <time>2018-02-24T02:07:04Z</time>
      </trkpt>
      <trkpt lat="47.84879" lon="7.11768">
        <ele>909</ele>
        <time>2018-02-24T02:08:04Z</time>
      </trkpt>
      <trkpt lat="47.84965" lon="7.11871">
        <ele>915</ele>
        <time>2018-02-24T02:09:04Z</time>
      </trkpt>
      <trkpt lat="47.85086" lon="7.11889">
        <ele>910</ele>
        <time>2018-02-24T02:10:04Z</time>
      </trkpt>
      <trkpt lat="47.85291" lon="7.11932">
        <ele>898</ele>
        <time>2018-02-24T02:11:04Z</time>
      </trkpt>
      <trkpt lat="47.85324" lon="7.1208">
        <ele>920</ele>
        <time>2018-02-24T02:12:04Z</time>
      </trkpt>
      <trkpt lat="47.85402" lon="7.12221">
        <ele>927</ele>
        <time>2018-02-24T02:13:04Z</time>
      </trkpt>
      <trkpt lat="47.85511" lon="7.12333">
        <ele>927</ele>
        <time>2018-02-24T02:14:04Z</time>
      </trkpt>
      <trkpt lat="47.85611" lon="7.12453">
        <ele>927</ele>
        <time>2018-02-24T02:15:04Z</time>
      </trkpt>
      <trkpt lat="47.85677" lon="7.12507">
        <ele>930</ele>
        <time>2018-02-24T02:16:04Z</time>
      </trkpt>
      <trkpt lat="47.85844" lon="7.12558">
        <ele>935</ele>
        <time>2018-02-24T02:17:04Z</time>
      </trkpt>
      <trkpt lat="47.85883" lon="7.12455">
        <ele>933</ele>
        <time>2018-02-24T02:18:04Z</time>
      </trkpt>
      <trkpt lat="47.85907" lon="7.12283">
        <ele>926</ele>
        <time>2018-02-24T02:19:04Z</time>
      </trkpt>
      <trkpt lat="47.85949" lon="7.12165">
        <ele>932</ele>
        <time>2018-02-24T02:20:04Z</time>
      </trkpt>
      <trkpt lat="47.86028" lon="7.11994">
        <ele>924</ele>
        <time>2018-02-24T02:21:04Z</time>
      </trkpt>
      <trkpt lat="47.86149" lon="7.122">
        <ele>946</ele>
        <time>2018-02-24T02:22:04Z</time>
      </trkpt>
      <trkpt lat="47.86273" lon="7.12286">
        <ele>918</ele>
        <time>2018-02-24T02:23:04Z</time>
      </trkpt>
      <trkpt lat="47.86343" lon="7.12318">
        <ele>902</ele>
        <time>2018-02-24T02:24:04Z</time>
      </trkpt>
      <trkpt lat="47.86404" lon="7.12384">
        <ele>900</ele>
        <time>2018-02-24T02:25:04Z</time>
      </trkpt>
      <trkpt lat="47.86549" lon="7.12416">
        <ele>882</ele>
        <time>2018-02-24T02:26:04Z</time>
      </trkpt>
      <trkpt lat="47.86703" lon="7.12356">
        <ele>866</ele>
        <time>2018-02-24T02:27:04Z</time>
      </trkpt>
      <trkpt lat="47.86805" lon="7.12333">
        <ele>863</ele>
        <time>2018-02-24T02:28:04Z</time>
      </trkpt>
      <trkpt lat="47.86815" lon="7.12281">
        <ele>859</ele>
        <time>2018-02-24T02:29:04Z</time>
      </trkpt>
      <trkpt lat="47.86923" lon="7.12275">
        <ele>873</ele>
        <time>2018-02-24T02:30:04Z</time>
      </trkpt>
      <trkpt lat="47.87001" lon="7.12365">
        <ele>891</ele>
        <time>2018-02-24T02:31:04Z</time>
      </trkpt>
      <trkpt lat="47.87023" lon="7.12462">
        <ele>896</ele>
        <time>2018-02-24T02:32:04Z</time>
      </trkpt>
      <trkpt lat="47.87033" lon="7.12519">
        <ele>894</ele>
        <time>2018-02-24T02:33:04Z</time>
      </trkpt>
      <trkpt lat="47.87109" lon="7.12616">
        <ele>875</ele>
        <time>2018-02-24T02:34:04Z</time>
      </trkpt>
      <trkpt lat="47.87128" lon="7.1265">
        <ele>870</ele>
        <time>2018-02-24T02:35:04Z</time>
      </trkpt>
      <trkpt lat="47.87193" lon="7.1273">
        <ele>865</ele>
        <time>2018-02-24T02:36:04Z</time>
      </trkpt>
      <trkpt lat="47.8726" lon="7.12743">
        <ele>859</ele>
        <time>2018-02-24T02:37:04Z</time>
      </trkpt>
      <trkpt lat="47.87308" lon="7.12773">
        <ele>858</ele>
        <time>2018-02-24T02:38:04Z</time>
      </trkpt>
      <trkpt lat="47.87312" lon="7.12685">
        <ele>847</ele>
        <time>2018-02-24T02:39:04Z</time>
      </trkpt>
      <trkpt lat="47.87357" lon="7.12646">
        <ele>838</ele>
        <time>2018-02-24T02:40:04Z</time>
      </trkpt>
      <trkpt lat="47.87449" lon="7.12685">
        <ele>833</ele>
        <time>2018-02-24T02:41:04Z</time>
      </trkpt>
      <trkpt lat="47.87547" lon="7.1273">
        <ele>827</ele>
        <time>2018-02-24T02:42:04Z</time>
      </trkpt>
      <trkpt lat="47.87616" lon="7.12736">
        <ele>833</ele>
        <time>2018-02-24T02:43:04Z</time>
      </trkpt>
      <trkpt lat="47.87692" lon="7.12751">
        <ele>845</ele>
        <time>2018-02-24T02:44:04Z</time>
      </trkpt>
      <trkpt lat="47.87796" lon="7.12762">
        <ele>859</ele>
        <time>2018-02-24T02:45:04Z</time>
      </trkpt>
      <trkpt lat="47.87894" lon="7.1282">
        <ele>874</ele>
        <time>2018-02-24T02:46:04Z</time>
      </trkpt>
      <trkpt lat="47.87977" lon="7.12878">
        <ele>890</ele>
        <time>2018-02-24T02:47:04Z</time>
      </trkpt>
      <trkpt lat="47.8813" lon="7.12886">
        <ele>910</ele>
        <time>2018-02-24T02:48:04Z</time>
      </trkpt>
      <trkpt lat="47.8826" lon="7.12923">
        <ele>932</ele>
        <time>2018-02-24T02:49:04Z</time>
      </trkpt>
      <trkpt lat="47.88368" lon="7.12955">
        <ele>947</ele>
        <time>2018-02-24T02:50:04Z</time>
      </trkpt>
      <trkpt lat="47.88442" lon="7.12955">
        <ele>959</ele>
        <time>2018-02-24T02:51:04Z</time>
      </trkpt>
      <trkpt lat="47.88532" lon="7.12869">
        <ele>959</ele>
        <time>2018-02-24T02:52:04Z</time>
      </trkpt>
      <trkpt lat="47.88648" lon="7.12846">
        <ele>958</ele>
        <time>2018-02-24T02:53:04Z</time>
      </trkpt>
      <trkpt lat="47.88685" lon="7.12816">
        <ele>954</ele>
        <time>2018-02-24T02:54:04Z</time>
      </trkpt>
      <trkpt lat="47.88714" lon="7.12728">
        <ele>956</ele>
        <time>2018-02-24T02:55:04Z</time>
      </trkpt>
      <trkpt lat="47.88793" lon="7.12614">
        <ele>977</ele>
        <time>2018-02-24T02:56:04Z</time>
      </trkpt>
      <trkpt lat="47.88725" lon="7.12577">
        <ele>983</ele>
        <time>2018-02-24T02:57:04Z</time>
      </trkpt>
      <trkpt lat="47.88794" lon="7.12453">
        <ele>1008</ele>
        <time>2018-02-24T02:58:04Z</time>
      </trkpt>
      <trkpt lat="47.8884" lon="7.12316">
        <ele>1022</ele>
        <time>2018-02-24T02:59:04Z</time>
      </trkpt>
      <trkpt lat="47.88928" lon="7.1212">
        <ele>1043</ele>
        <time>2018-02-24T03:00:04Z</time>
      </trkpt>
      <trkpt lat="47.89002" lon="7.12015">
        <ele>1059</ele>
        <time>2018-02-24T03:01:04Z</time>
      </trkpt>
      <trkpt lat="47.89071" lon="7.11955">
        <ele>1066</ele>
        <time>2018-02-24T03:02:04Z</time>
      </trkpt>
      <trkpt lat="47.89132" lon="7.11807">
        <ele>1084</ele>
        <time>2018-02-24T03:03:04Z</time>
      </trkpt>
      <trkpt lat="47.892" lon="7.11635">
        <ele>1107</ele>
        <time>2018-02-24T03:04:04Z</time>
      </trkpt>
      <trkpt lat="47.89285" lon="7.11541">
        <ele>1124</ele>
        <time>2018-02-24T03:05:04Z</time>
      </trkpt>
      <trkpt lat="47.8941" lon="7.11378">
        <ele>1154</ele>
        <time>2018-02-24T03:06:04Z</time>
      </trkpt>
      <trkpt lat="47.89635" lon="7.10953">
        <ele>1195</ele>
        <time>2018-02-24T03:07:04Z</time>
      </trkpt>
      <trkpt lat="47.8982" lon="7.10683">
        <ele>1242</ele>
        <time>2018-02-24T03:08:04Z</time>
      </trkpt>
      <trkpt lat="47.89868" lon="7.10563">
        <ele>1263</ele>
        <time>2018-02-24T03:09:04Z</time>
      </trkpt>
      <trkpt lat="47.89882" lon="7.10475">
        <ele>1276</ele>
        <time>2018-02-24T03:10:04Z</time>
      </trkpt>
      <trkpt lat="47.89849" lon="7.10438">
        <ele>1281</ele>
        <time>2018-02-24T03:11:04Z</time>
      </trkpt>
      <trkpt lat="47.89905" lon="7.10412">
        <ele>1286</ele>
        <time>2018-02-24T03:12:04Z</time>
      </trkpt>
      <trkpt lat="47.90062" lon="7.10331">
        <ele>1312</ele>
        <time>2018-02-24T03:13:04Z</time>
      </trkpt>
      <trkpt lat="47.90076" lon="7.10296">
        <ele>1320</ele>
        <time>2018-02-24T03:14:04Z</time>
      </trkpt>
      <trkpt lat="47.90295" lon="7.10322">
        <ele>1336</ele>
        <time>2018-02-24T03:15:04Z</time>
      </trkpt>
      <trkpt lat="47.90381" lon="7.10314">
        <ele>1340</ele>
        <time>2018-02-24T03:16:04Z</time>
      </trkpt>
      <trkpt lat="47.90442" lon="7.10262">
        <ele>1342</ele>
        <time>2018-02-24T03:17:04Z</time>
      </trkpt>
      <trkpt lat="47.90485" lon="7.10213">
        <ele>1334</ele>
        <time>2018-02-24T03:18:04Z</time>
      </trkpt>
      <trkpt lat="47.90512" lon="7.10071">
        <ele>1322</ele>
        <time>2018-02-24T03:19:04Z</time>
      </trkpt>
      <trkpt lat="47.90527" lon="7.09917">
        <ele>1312</ele>
        <time>2018-02-24T03:20:04Z</time>
      </trkpt>
      <trkpt lat="47.90531" lon="7.09809">
        <ele>1302</ele>
        <time>2018-02-24T03:21:04Z</time>
      </trkpt>
      <trkpt lat="47.90519" lon="7.09672">
        <ele>1292</ele>
        <time>2018-02-24T03:22:04Z</time>
      </trkpt>
      <trkpt lat="47.90519" lon="7.09533">
        <ele>1277</ele>
        <time>2018-02-24T03:23:04Z</time>
      </trkpt>
      <trkpt lat="47.90486" lon="7.09415">
        <ele>1266</ele>
        <time>2018-02-24T03:24:04Z</time>
      </trkpt>
      <trkpt lat="47.90452" lon="7.09226">
        <ele>1243</ele>
        <time>2018-02-24T03:25:04Z</time>
      </trkpt>
      <trkpt lat="47.90456" lon="7.09133">
        <ele>1234</ele>
        <time>2018-02-24T03:26:04Z</time>
      </trkpt>
      <trkpt lat="47.90514" lon="7.09007">
        <ele>1225</ele>
        <time>2018-02-24T03:27:04Z</time>
      </trkpt>
      <trkpt lat="47.90432" lon="7.08889">
        <ele>1213</ele>
        <time>2018-02-24T03:28:04Z</time>
      </trkpt>
      <trkpt lat="47.9034" lon="7.08704">
        <ele>1199</ele>
        <time>2018-02-24T03:29:04Z</time>
      </trkpt>
      <trkpt lat="47.90104" lon="7.08511">
        <ele>1168</ele>
        <time>2018-02-24T03:30:04Z</time>
      </trkpt>
      <trkpt lat="47.90014" lon="7.08421">
        <ele>1161</ele>
        <time>2018-02-24T03:31:04Z</time>
      </trkpt>
      <trkpt lat="47.89948" lon="7.08252">
        <ele>1159</ele>
        <time>2018-02-24T03:32:04Z</time>
      </trkpt>
      <trkpt lat="47.89892" lon="7.08093">
        <ele>1153</ele>
        <time>2018-02-24T03:33:04Z</time>
      </trkpt>
      <trkpt lat="47.89812" lon="7.07874">
        <ele>1147</ele>
        <time>2018-02-24T03:34:04Z</time>
      </trkpt>
      <trkpt lat="47.89699" lon="7.07782">
        <ele>1133</ele>
        <time>2018-02-24T03:35:04Z</time>
      </trkpt>
      <trkpt lat="47.89584" lon="7.07599">
        <ele>1112</ele>
        <time>2018-02-24T03:36:04Z</time>
      </trkpt>
      <trkpt lat="47.89537" lon="7.07511">
        <ele>1093</ele>
        <time>2018-02-24T03:37:04Z</time>
      </trkpt>
      <trkpt lat="47.89603" lon="7.07207">
        <ele>1072</ele>
        <time>2018-02-24T03:38:04Z</time>
      </trkpt>
      <trkpt lat="47.8965" lon="7.06956">
        <ele>1045</ele>
        <time>2018-02-24T03:39:04Z</time>
      </trkpt>
      <trkpt lat="47.89606" lon="7.06842">
        <ele>1031</ele>
        <time>2018-02-24T03:40:04Z</time>
      </trkpt>
      <trkpt lat="47.89639" lon="7.0684">
        <ele>1032</ele>
        <time>2018-02-24T03:41:04Z</time>
      </trkpt>
      <trkpt lat="47.8959" lon="7.0667">
        <ele>1038</ele>
        <time>2018-02-24T03:42:04Z</time>
      </trkpt>
      <trkpt lat="47.89522" lon="7.06488">
        <ele>1021</ele>
        <time>2018-02-24T03:43:04Z</time>
      </trkpt>
      <trkpt lat="47.89472" lon="7.06301">
        <ele>988</ele>
        <time>2018-02-24T03:44:04Z</time>
      </trkpt>
      <trkpt lat="47.89438" lon="7.06164">
        <ele>971</ele>
        <time>2018-02-24T03:45:04Z</time>
      </trkpt>
      <trkpt lat="47.89471" lon="7.05872">
        <ele>934</ele>
        <time>2018-02-24T03:46:04Z</time>
      </trkpt>
      <trkpt lat="47.89471" lon="7.05715">
        <ele>910</ele>
        <time>2018-02-24T03:47:04Z</time>
      </trkpt>
      <trkpt lat="47.8943" lon="7.05636">
        <ele>905</ele>
        <time>2018-02-24T03:48:04Z</time>
      </trkpt>
      <trkpt lat="47.89347" lon="7.05559">
        <ele>893</ele>
        <time>2018-02-24T03:49:04Z</time>
      </trkpt>
      <trkpt lat="47.89291" lon="7.05514">
        <ele>886</ele>
        <time>2018-02-24T03:50:04Z</time>
      </trkpt>
      <trkpt lat="47.89215" lon="7.05408">
        <ele>877</ele>
        <time>2018-02-24T03:51:04Z</time>
      </trkpt>
      <trkpt lat="47.8918" lon="7.05282">
        <ele>874</ele>
        <time>2018-02-24T03:52:04Z</time>
      </trkpt>
      <trkpt lat="47.8912" lon="7.05155">
        <ele>858</ele>
        <time>2018-02-24T03:53:04Z</time>
      </trkpt>
      <trkpt lat="47.88953" lon="7.05121">
        <ele>842</ele>
        <time>2018-02-24T03:54:04Z</time>
      </trkpt>
      <trkpt lat="47.88846" lon="7.0505">
        <ele>821</ele>
        <time>2018-02-24T03:55:04Z</time>
      </trkpt>
      <trkpt lat="47.88702" lon="7.05033">
        <ele>796</ele>
        <time>2018-02-24T03:56:04Z</time>
      </trkpt>
      <trkpt lat="47.88504" lon="7.05011">
        <ele>770</ele>
        <time>2018-02-24T03:57:04Z</time>
      </trkpt>
      <trkpt lat="47.88435" lon="7.0496">
        <ele>759</ele>
        <time>2018-02-24T03:58:04Z</time>
      </trkpt>
      <trkpt lat="47.88354" lon="7.04866">
        <ele>753</ele>
        <time>2018-02-24T03:59:04Z</time>
      </trkpt>
      <trkpt lat="47.88291" lon="7.04739">
        <ele>746</ele>
        <time>2018-02-24T04:00:04Z</time>
      </trkpt>
      <trkpt lat="47.88236" lon="7.04576">
        <ele>742</ele>
        <time>2018-02-24T04:01:04Z</time>
      </trkpt>
      <trkpt lat="47.88187" lon="7.0446">
        <ele>730</ele>
        <time>2018-02-24T04:02:04Z</time>
      </trkpt>
      <trkpt lat="47.88121" lon="7.04378">
        <ele>727</ele>
        <time>2018-02-24T04:03:04Z</time>
      </trkpt>
      <trkpt lat="47.88024" lon="7.04318">
        <ele>710</ele>
        <time>2018-02-24T04:04:04Z</time>
      </trkpt>
      <trkpt lat="47.87837" lon="7.04348">
        <ele>669</ele>
        <time>2018-02-24T04:05:04Z</time>
      </trkpt>
      <trkpt lat="47.87689" lon="7.04411">
        <ele>659</ele>
        <time>2018-02-24T04:06:04Z</time>
      </trkpt>
      <trkpt lat="47.87629" lon="7.04411">
        <ele>656</ele>
        <time>2018-02-24T04:07:04Z</time>
      </trkpt>
      <trkpt lat="47.87575" lon="7.04312">
        <ele>630</ele>
        <time>2018-02-24T04:08:04Z</time>
      </trkpt>
      <trkpt lat="47.87514" lon="7.0422">
        <ele>617</ele>
        <time>2018-02-24T04:09:04Z</time>
      </trkpt>
      <trkpt lat="47.8743" lon="7.0413">
        <ele>604</ele>
        <time>2018-02-24T04:10:04Z</time>
      </trkpt>
      <trkpt lat="47.87362" lon="7.0411">
        <ele>603</ele>
        <time>2018-02-24T04:11:04Z</time>
      </trkpt>
      <trkpt lat="47.87301" lon="7.04052">
        <ele>595</ele>
        <time>2018-02-24T04:12:04Z</time>
      </trkpt>
      <trkpt lat="47.87381" lon="7.04039">
        <ele>587</ele>
        <time>2018-02-24T04:13:04Z</time>
      </trkpt>
      <trkpt lat="47.87315" lon="7.03924">
        <ele>560</ele>
        <time>2018-02-24T04:14:04Z</time>
      </trkpt>
      <trkpt lat="47.87216" lon="7.03889">
        <ele>534</ele>
        <time>2018-02-24T04:15:04Z</time>
      </trkpt>
      <trkpt lat="47.87308" lon="7.03825">
        <ele>526</ele>
        <time>2018-02-24T04:16:04Z</time>
      </trkpt>
      <trkpt lat="47.87358" lon="7.03799">
        <ele>523</ele>
        <time>2018-02-24T04:17:04Z</time>
      </trkpt>
      <trkpt lat="47.87289" lon="7.03737">
        <ele>493</ele>
        <time>2018-02-24T04:18:04Z</time>
      </trkpt>
      <trkpt lat="47.872" lon="7.03767">
        <ele>478</ele>
        <time>2018-02-24T04:19:04Z</time>
      </trkpt>
      <trkpt lat="47.8728" lon="7.03681">
        <ele>473</ele>
        <time>2018-02-24T04:20:04Z</time>
      </trkpt>
      <trkpt lat="47.87332" lon="7.03651">
        <ele>473</ele>
        <time>2018-02-24T04:21:04Z</time>
      </trkpt>
      <trkpt lat="47.87367" lon="7.03578">
        <ele>454</ele>
        <time>2018-02-24T04:22:04Z</time>
      </trkpt>
      <trkpt lat="47.87319" lon="7.03569">
        <ele>446</ele>
        <time>2018-02-24T04:23:04Z</time>
      </trkpt>
      <trkpt lat="47.87411" lon="7.03524">
        <ele>445</ele>
        <time>2018-02-24T04:24:04Z</time>
      </trkpt>
      <trkpt lat="47.87479" lon="7.03383">
        <ele>429</ele>
        <time>2018-02-24T04:25:04Z</time>
      </trkpt>
      <trkpt lat="47.87527" lon="7.03293">
        <ele>424</ele>
        <time>2018-02-24T04:26:04Z</time>
      </trkpt>
      <trkpt lat="47.87493" lon="7.03237">
        <ele>418</ele>
        <time>2018-02-24T04:27:04Z</time>
      </trkpt>
      <trkpt lat="47.8744" lon="7.03177">
        <ele>416</ele>
        <time>2018-02-24T04:28:04Z</time>
      </trkpt>
      <trkpt lat="47.87404" lon="7.03149">
        <ele>415</ele>
        <time>2018-02-24T04:29:04Z</time>
      </trkpt>
      <trkpt lat="47.87324" lon="7.03233">
        <ele>410</ele>
        <time>2018-02-24T04:30:04Z</time>
      </trkpt>
    </trkseg>
  </trk>
</gpx>